Wetterdaten: Freitag, 20.10.2023
Datum Zeit Temp. Aussen Temp. o. S. Temp +5cm Feuchte Auss Luftdruck Regen Sonnenschein Regendauer Solar Windben Empfang
20.10.2023 00:00 14,3 C 13,9 C 10,6 C 98 % 987,7 hPa 0,0 l/m 0 min 0 min 0 W/m 6,4 km/h (2 Bft) 93,62 %
20.10.2023 00:02 14,3 C 13,9 C 10,6 C 98 % 987,6 hPa 0,0 l/m 0 min 0 min 0 W/m 0,0 km/h (0 Bft) 12,50 %
20.10.2023 00:04 14,3 C 13,9 C 10,6 C 98 % 987,7 hPa 0,0 l/m 0 min 0 min 0 W/m 3,2 km/h (1 Bft) 75,00 %
20.10.2023 00:08 14,3 C 13,9 C 10,6 C 98 % 987,8 hPa 0,0 l/m 0 min 0 min 0 W/m 12,9 km/h (3 Bft) 93,20 %
20.10.2023 00:10 14,3 C 13,9 C 10,6 C 98 % 987,7 hPa 0,0 l/m 0 min 0 min 0 W/m 6,4 km/h (2 Bft) 93,48 %
20.10.2023 00:12 14,3 C 13,9 C 10,6 C 98 % 987,7 hPa 0,0 l/m 0 min 0 min 0 W/m 12,9 km/h (3 Bft) 94,00 %
20.10.2023 00:14 14,3 C 13,9 C 10,6 C 98 % 987,7 hPa 0,0 l/m 0 min 0 min 0 W/m 6,4 km/h (2 Bft) 91,49 %
20.10.2023 00:16 14,4 C 13,9 C 10,6 C 98 % 987,6 hPa 0,0 l/m 0 min 0 min 0 W/m 16,1 km/h (3 Bft) 93,62 %
20.10.2023 00:18 14,4 C 13,9 C 10,6 C 97 % 987,6 hPa 0,0 l/m 0 min 0 min 0 W/m 12,9 km/h (3 Bft) 93,62 %
20.10.2023 00:20 14,4 C 13,9 C 11,1 C 97 % 987,5 hPa 0,0 l/m 0 min 0 min 0 W/m 12,9 km/h (3 Bft) 95,74 %
20.10.2023 00:22 14,4 C 13,9 C 10,6 C 97 % 987,3 hPa 0,0 l/m 0 min 0 min 0 W/m 3,2 km/h (1 Bft) 95,74 %
20.10.2023 00:24 14,5 C 13,9 C 10,6 C 97 % 987,3 hPa 0,0 l/m 0 min 0 min 0 W/m 9,7 km/h (2 Bft) 93,48 %
20.10.2023 00:26 14,5 C 13,9 C 10,6 C 97 % 987,2 hPa 0,0 l/m 0 min 0 min 0 W/m 6,4 km/h (2 Bft) 95,74 %
20.10.2023 00:28 14,5 C 13,9 C 10,6 C 97 % 987,2 hPa 0,0 l/m 0 min 0 min 0 W/m 6,4 km/h (2 Bft) 95,74 %
20.10.2023 00:30 14,5 C 13,9 C 10,6 C 97 % 987,2 hPa 0,0 l/m 0 min 0 min 0 W/m 3,2 km/h (1 Bft) 95,74 %
20.10.2023 00:32 14,5 C 13,9 C 10,6 C 97 % 987,3 hPa 0,0 l/m 0 min 0 min 0 W/m 6,4 km/h (2 Bft) 95,74 %
20.10.2023 00:34 14,5 C 13,9 C 10,6 C 97 % 987,3 hPa 0,0 l/m 0 min 0 min 0 W/m 6,4 km/h (2 Bft) 97,87 %
20.10.2023 00:36 14,5 C 13,9 C 10,6 C 97 % 987,2 hPa 0,0 l/m 0 min 0 min 0 W/m 6,4 km/h (2 Bft) 100,00 %
20.10.2023 00:38 14,5 C 13,9 C 10,6 C 97 % 987,1 hPa 0,0 l/m 0 min 0 min 0 W/m 6,4 km/h (2 Bft) 95,74 %
20.10.2023 00:40 14,5 C 13,9 C 10,6 C 97 % 987,2 hPa 0,0 l/m 0 min 0 min 0 W/m 6,4 km/h (2 Bft) 100,00 %
20.10.2023 00:42 14,5 C 13,9 C 10,6 C 97 % 987,2 hPa 0,0 l/m 0 min 0 min 0 W/m 9,7 km/h (2 Bft) 100,00 %
20.10.2023 00:44 14,5 C 13,9 C 10,6 C 97 % 987,2 hPa 0,0 l/m 0 min 0 min 0 W/m 12,9 km/h (3 Bft) 100,00 %
20.10.2023 00:46 14,6 C 13,9 C 10,6 C 97 % 987,2 hPa 0,0 l/m 0 min 0 min 0 W/m 9,7 km/h (2 Bft) 97,87 %
20.10.2023 00:48 14,6 C 13,9 C 11,1 C 97 % 987,2 hPa 0,0 l/m 0 min 0 min 0 W/m 12,9 km/h (3 Bft) 100,00 %
20.10.2023 00:50 14,6 C 13,9 C 11,1 C 97 % 987,1 hPa 0,0 l/m 0 min 0 min 0 W/m 12,9 km/h (3 Bft) 100,00 %
20.10.2023 00:52 14,6 C 13,9 C 11,1 C 97 % 987,1 hPa 0,0 l/m 0 min 0 min 0 W/m 6,4 km/h (2 Bft) 100,00 %
20.10.2023 00:54 14,6 C 13,9 C 11,1 C 97 % 987,1 hPa 0,0 l/m 0 min 0 min 0 W/m 12,9 km/h (3 Bft) 100,00 %
20.10.2023 00:56 14,6 C 13,9 C 11,1 C 97 % 987,1 hPa 0,0 l/m 0 min 0 min 0 W/m 9,7 km/h (2 Bft) 97,87 %
20.10.2023 00:58 14,6 C 13,9 C 11,1 C 97 % 987,1 hPa 0,0 l/m 0 min 0 min 0 W/m 6,4 km/h (2 Bft) 100,00 %
20.10.2023 01:00 14,6 C 14,4 C 11,1 C 97 % 987,1 hPa 0,0 l/m 0 min 0 min 0 W/m 9,7 km/h (2 Bft) 100,00 %
20.10.2023 01:02 14,6 C 14,4 C 11,1 C 97 % 987,1 hPa 0,0 l/m 0 min 0 min 0 W/m 6,4 km/h (2 Bft) 97,87 %
20.10.2023 01:04 14,7 C 14,4 C 11,1 C 97 % 987,0 hPa 0,0 l/m 0 min 0 min 0 W/m 16,1 km/h (3 Bft) 100,00 %
20.10.2023 01:06 14,7 C 14,4 C 11,1 C 97 % 987,0 hPa 0,0 l/m 0 min 0 min 0 W/m 16,1 km/h (3 Bft) 97,87 %
20.10.2023 01:08 14,7 C 14,4 C 11,1 C 97 % 987,0 hPa 0,0 l/m 0 min 0 min 0 W/m 16,1 km/h (3 Bft) 100,00 %
20.10.2023 01:10 14,7 C 14,4 C 11,1 C 97 % 987,1 hPa 0,0 l/m 0 min 0 min 0 W/m 6,4 km/h (2 Bft) 97,87 %
20.10.2023 01:12 14,7 C 14,4 C 11,1 C 97 % 987,0 hPa 0,0 l/m 0 min 0 min 0 W/m 9,7 km/h (2 Bft) 100,00 %
20.10.2023 01:14 14,8 C 14,4 C 11,1 C 97 % 987,0 hPa 0,0 l/m 0 min 0 min 0 W/m 12,9 km/h (3 Bft) 100,00 %
20.10.2023 01:16 14,8 C 14,4 C 11,1 C 97 % 986,9 hPa 0,0 l/m 0 min 0 min 0 W/m 16,1 km/h (3 Bft) 95,74 %
20.10.2023 01:18 14,8 C 14,4 C 11,1 C 97 % 986,9 hPa 0,0 l/m 0 min 0 min 0 W/m 6,4 km/h (2 Bft) 100,00 %
20.10.2023 01:20 14,8 C 14,4 C 11,1 C 97 % 987,0 hPa 0,0 l/m 0 min 0 min 0 W/m 12,9 km/h (3 Bft) 100,00 %
20.10.2023 01:22 14,8 C 14,4 C 11,1 C 97 % 986,9 hPa 0,0 l/m 0 min 0 min 0 W/m 9,7 km/h (2 Bft) 100,00 %
20.10.2023 01:24 14,8 C 14,4 C 11,1 C 97 % 986,9 hPa 0,0 l/m 0 min 0 min 0 W/m 6,4 km/h (2 Bft) 97,87 %
20.10.2023 01:26 14,8 C 14,4 C 11,1 C 97 % 986,9 hPa 0,0 l/m 0 min 0 min 0 W/m 9,7 km/h (2 Bft) 97,87 %
20.10.2023 01:28 14,8 C 14,4 C 11,1 C 97 % 986,9 hPa 0,0 l/m 0 min 0 min 0 W/m 9,7 km/h (2 Bft) 100,00 %
20.10.2023 01:30 14,8 C 14,4 C 11,1 C 97 % 986,9 hPa 0,0 l/m 0 min 0 min 0 W/m 6,4 km/h (2 Bft) 100,00 %
20.10.2023 01:32 14,8 C 14,4 C 11,1 C 97 % 986,8 hPa 0,0 l/m 0 min 0 min 0 W/m 12,9 km/h (3 Bft) 100,00 %
20.10.2023 01:34 14,9 C 14,4 C 11,1 C 97 % 986,8 hPa 0,0 l/m 0 min 0 min 0 W/m 6,4 km/h (2 Bft) 95,74 %
20.10.2023 01:36 14,9 C 14,4 C 11,1 C 97 % 986,8 hPa 0,0 l/m 0 min 2 min 0 W/m 12,9 km/h (3 Bft) 97,87 %
20.10.2023 01:38 14,9 C 14,4 C 11,1 C 97 % 986,7 hPa 0,2 l/m 0 min 0 min 0 W/m 9,7 km/h (2 Bft) 100,00 %
20.10.2023 01:40 14,9 C 14,4 C 10,6 C 97 % 986,6 hPa 0,0 l/m 0 min 2 min 0 W/m 6,4 km/h (2 Bft) 95,74 %
20.10.2023 01:42 14,9 C 14,4 C 10,6 C 97 % 986,6 hPa 0,0 l/m 0 min 2 min 0 W/m 9,7 km/h (2 Bft) 97,87 %
20.10.2023 01:44 14,9 C 14,4 C 10,6 C 97 % 986,6 hPa 0,0 l/m 0 min 2 min 0 W/m 3,2 km/h (1 Bft) 97,83 %
20.10.2023 01:46 14,9 C 14,4 C 10,6 C 97 % 986,5 hPa 0,0 l/m 0 min 0 min 0 W/m 3,2 km/h (1 Bft) 97,87 %
20.10.2023 01:48 14,9 C 14,4 C 10,6 C 97 % 986,5 hPa 0,0 l/m 0 min 0 min 0 W/m 9,7 km/h (2 Bft) 97,87 %
20.10.2023 01:50 14,9 C 14,4 C 10,6 C 97 % 986,5 hPa 0,0 l/m 0 min 0 min 0 W/m 6,4 km/h (2 Bft) 97,87 %
20.10.2023 01:52 14,9 C 14,4 C 10,6 C 97 % 986,4 hPa 0,0 l/m 0 min 2 min 0 W/m 12,9 km/h (3 Bft) 97,87 %
20.10.2023 01:54 14,9 C 14,4 C 10,6 C 97 % 986,4 hPa 0,0 l/m 0 min 0 min 0 W/m 9,7 km/h (2 Bft) 97,87 %
20.10.2023 01:56 14,9 C 14,4 C 10,6 C 97 % 986,4 hPa 0,0 l/m 0 min 0 min 0 W/m 6,4 km/h (2 Bft) 95,74 %
20.10.2023 01:58 14,9 C 14,4 C 10,6 C 97 % 986,3 hPa 0,0 l/m 0 min 2 min 0 W/m 6,4 km/h (2 Bft) 97,37 %
20.10.2023 02:00 14,9 C 14,4 C 10,6 C 96 % 986,3 hPa 0,0 l/m 0 min 2 min 0 W/m 9,7 km/h (2 Bft) 95,74 %
20.10.2023 02:02 14,9 C 14,4 C 10,6 C 97 % 986,3 hPa 0,0 l/m 0 min 2 min 0 W/m 12,9 km/h (3 Bft) 95,65 %
20.10.2023 02:04 14,9 C 14,4 C 10,6 C 96 % 986,2 hPa 0,0 l/m 0 min 2 min 0 W/m 9,7 km/h (2 Bft) 97,87 %
20.10.2023 02:06 14,9 C 14,4 C 10,6 C 96 % 986,3 hPa 0,0 l/m 0 min 0 min 0 W/m 12,9 km/h (3 Bft) 93,22 %
20.10.2023 02:08 14,9 C 14,4 C 10,6 C 96 % 986,3 hPa 0,0 l/m 0 min 0 min 0 W/m 3,2 km/h (1 Bft) 97,14 %
20.10.2023 02:10 14,9 C 14,4 C 10,6 C 96 % 986,2 hPa 0,0 l/m 0 min 0 min 0 W/m 9,7 km/h (2 Bft) 97,87 %
20.10.2023 02:12 14,9 C 14,4 C 10,6 C 96 % 986,2 hPa 0,0 l/m 0 min 0 min 0 W/m 12,9 km/h (3 Bft) 100,00 %
20.10.2023 02:14 14,9 C 14,4 C 10,6 C 96 % 986,1 hPa 0,0 l/m 0 min 0 min 0 W/m 6,4 km/h (2 Bft) 100,00 %
20.10.2023 02:16 14,9 C 14,4 C 10,6 C 96 % 986,1 hPa 0,0 l/m 0 min 0 min 0 W/m 9,7 km/h (2 Bft) 97,87 %
20.10.2023 02:18 14,9 C 14,4 C 10,6 C 96 % 986,1 hPa 0,0 l/m 0 min 0 min 0 W/m 6,4 km/h (2 Bft) 97,87 %
20.10.2023 02:20 14,9 C 14,4 C 10,6 C 96 % 986,1 hPa 0,0 l/m 0 min 0 min 0 W/m 3,2 km/h (1 Bft) 100,00 %
20.10.2023 02:22 14,9 C 13,9 C 10,6 C 96 % 986,1 hPa 0,0 l/m 0 min 0 min 0 W/m 3,2 km/h (1 Bft) 100,00 %
20.10.2023 02:24 14,9 C 13,9 C 10,6 C 96 % 986,0 hPa 0,0 l/m 0 min 0 min 0 W/m 6,4 km/h (2 Bft) 100,00 %
20.10.2023 02:26 14,9 C 14,4 C 10,6 C 96 % 986,0 hPa 0,0 l/m 0 min 0 min 0 W/m 3,2 km/h (1 Bft) 100,00 %
20.10.2023 02:28 14,9 C 14,4 C 10,6 C 96 % 986,0 hPa 0,0 l/m 0 min 0 min 0 W/m 3,2 km/h (1 Bft) 95,65 %
20.10.2023 02:30 14,9 C 14,4 C 10,6 C 96 % 986,0 hPa 0,0 l/m 0 min 0 min 0 W/m 16,1 km/h (3 Bft) 100,00 %
20.10.2023 02:32 14,9 C 14,4 C 10,6 C 96 % 986,0 hPa 0,0 l/m 0 min 0 min 0 W/m 12,9 km/h (3 Bft) 95,74 %
20.10.2023 02:34 14,9 C 14,4 C 10,6 C 97 % 986,0 hPa 0,0 l/m 0 min 0 min 0 W/m 6,4 km/h (2 Bft) 95,74 %
20.10.2023 02:36 14,9 C 14,4 C 10,6 C 97 % 986,0 hPa 0,0 l/m 0 min 0 min 0 W/m 6,4 km/h (2 Bft) 97,87 %
20.10.2023 02:38 14,9 C 14,4 C 10,6 C 97 % 986,0 hPa 0,0 l/m 0 min 0 min 0 W/m 6,4 km/h (2 Bft) 95,65 %
20.10.2023 02:40 14,9 C 13,9 C 10,6 C 97 % 986,0 hPa 0,0 l/m 0 min 0 min 0 W/m 12,9 km/h (3 Bft) 97,87 %
20.10.2023 02:42 14,9 C 14,4 C 10,6 C 97 % 985,9 hPa 0,0 l/m 0 min 0 min 0 W/m 16,1 km/h (3 Bft) 95,74 %
20.10.2023 02:44 14,9 C 14,4 C 10,6 C 97 % 985,8 hPa 0,0 l/m 0 min 0 min 0 W/m 16,1 km/h (3 Bft) 95,74 %
20.10.2023 02:46 14,9 C 14,4 C 11,1 C 97 % 985,8 hPa 0,0 l/m 0 min 0 min 0 W/m 6,4 km/h (2 Bft) 93,62 %
20.10.2023 02:48 14,9 C 14,4 C 11,1 C 97 % 985,7 hPa 0,0 l/m 0 min 0 min 0 W/m 9,7 km/h (2 Bft) 95,74 %
20.10.2023 02:50 14,9 C 14,4 C 11,1 C 97 % 985,7 hPa 0,0 l/m 0 min 0 min 0 W/m 6,4 km/h (2 Bft) 95,65 %
20.10.2023 02:52 14,9 C 14,4 C 11,1 C 97 % 985,7 hPa 0,0 l/m 0 min 0 min 0 W/m 12,9 km/h (3 Bft) 93,62 %
20.10.2023 02:54 14,9 C 14,4 C 11,1 C 97 % 985,6 hPa 0,0 l/m 0 min 0 min 0 W/m 12,9 km/h (3 Bft) 95,74 %
20.10.2023 02:56 14,9 C 14,4 C 11,1 C 97 % 985,6 hPa 0,0 l/m 0 min 0 min 0 W/m 3,2 km/h (1 Bft) 95,74 %
20.10.2023 02:58 15,0 C 14,4 C 11,1 C 97 % 985,6 hPa 0,0 l/m 0 min 0 min 0 W/m 12,9 km/h (3 Bft) 93,62 %
20.10.2023 03:00 14,9 C 14,4 C 11,1 C 97 % 985,6 hPa 0,0 l/m 0 min 0 min 0 W/m 9,7 km/h (2 Bft) 97,83 %
20.10.2023 03:02 15,0 C 14,4 C 11,1 C 97 % 985,5 hPa 0,0 l/m 0 min 0 min 0 W/m 3,2 km/h (1 Bft) 95,74 %
20.10.2023 03:04 14,9 C 14,4 C 11,1 C 97 % 985,5 hPa 0,0 l/m 0 min 0 min 0 W/m 9,7 km/h (2 Bft) 95,56 %
20.10.2023 03:06 15,0 C 14,4 C 11,1 C 97 % 985,4 hPa 0,0 l/m 0 min 0 min 0 W/m 3,2 km/h (1 Bft) 94,83 %
20.10.2023 03:08 15,0 C 14,4 C 11,1 C 97 % 985,3 hPa 0,0 l/m 0 min 0 min 0 W/m 6,4 km/h (2 Bft) 94,44 %
20.10.2023 03:10 15,0 C 14,4 C 11,1 C 97 % 985,3 hPa 0,0 l/m 0 min 0 min 0 W/m 6,4 km/h (2 Bft) 97,37 %
20.10.2023 03:14 15,0 C 14,4 C 11,1 C 97 % 985,2 hPa 0,0 l/m 0 min 0 min 0 W/m 6,4 km/h (2 Bft) 96,00 %
20.10.2023 03:19 15,0 C 14,4 C 11,1 C 97 % 985,1 hPa 0,0 l/m 0 min 0 min 0 W/m 6,4 km/h (2 Bft) 100,00 %
20.10.2023 03:20 15,0 C 14,4 C 11,1 C 97 % 985,1 hPa 0,0 l/m 0 min 0 min 0 W/m 6,4 km/h (2 Bft) 95,65 %
20.10.2023 03:22 15,0 C 14,4 C 11,1 C 97 % 985,0 hPa 0,0 l/m 0 min 0 min 0 W/m 6,4 km/h (2 Bft) 96,23 %
20.10.2023 03:24 15,0 C 13,9 C 11,1 C 97 % 984,9 hPa 0,0 l/m 0 min 0 min 0 W/m 3,2 km/h (1 Bft) 97,87 %
20.10.2023 03:26 15,0 C 13,9 C 11,1 C 97 % 984,9 hPa 0,0 l/m 0 min 0 min 0 W/m 6,4 km/h (2 Bft) 97,87 %
20.10.2023 03:28 15,0 C 13,9 C 11,1 C 97 % 984,9 hPa 0,0 l/m 0 min 0 min 0 W/m 6,4 km/h (2 Bft) 95,74 %
20.10.2023 03:30 15,0 C 13,9 C 11,1 C 97 % 984,9 hPa 0,0 l/m 0 min 0 min 0 W/m 6,4 km/h (2 Bft) 97,87 %
20.10.2023 03:32 14,9 C 14,4 C 11,1 C 97 % 984,9 hPa 0,0 l/m 0 min 0 min 0 W/m 0,0 km/h (0 Bft) 97,96 %
20.10.2023 03:34 15,0 C 14,4 C 11,1 C 97 % 984,9 hPa 0,0 l/m 0 min 0 min 0 W/m 3,2 km/h (1 Bft) 97,87 %
20.10.2023 03:36 14,9 C 13,9 C 11,1 C 97 % 984,9 hPa 0,0 l/m 0 min 0 min 0 W/m 3,2 km/h (1 Bft) 95,74 %
20.10.2023 03:38 14,9 C 13,9 C 11,1 C 97 % 984,9 hPa 0,0 l/m 0 min 0 min 0 W/m 6,4 km/h (2 Bft) 97,87 %
20.10.2023 03:40 14,9 C 13,9 C 11,1 C 97 % 984,9 hPa 0,0 l/m 0 min 0 min 0 W/m 6,4 km/h (2 Bft) 97,87 %
20.10.2023 03:42 15,0 C 13,9 C 11,1 C 97 % 984,9 hPa 0,0 l/m 0 min 0 min 0 W/m 3,2 km/h (1 Bft) 97,87 %
20.10.2023 03:44 15,0 C 13,9 C 11,1 C 97 % 984,9 hPa 0,0 l/m 0 min 0 min 0 W/m 6,4 km/h (2 Bft) 97,83 %
20.10.2023 03:46 14,9 C 13,9 C 11,1 C 97 % 984,9 hPa 0,0 l/m 0 min 0 min 0 W/m 3,2 km/h (1 Bft) 95,74 %
20.10.2023 03:48 14,9 C 13,9 C 11,1 C 97 % 984,8 hPa 0,0 l/m 0 min 0 min 0 W/m 3,2 km/h (1 Bft) 97,87 %
20.10.2023 03:50 14,9 C 13,9 C 11,1 C 97 % 984,8 hPa 0,0 l/m 0 min 0 min 0 W/m 6,4 km/h (2 Bft) 97,87 %
20.10.2023 03:52 14,9 C 13,9 C 11,1 C 97 % 984,8 hPa 0,0 l/m 0 min 0 min 0 W/m 3,2 km/h (1 Bft) 97,87 %
20.10.2023 03:54 14,9 C 13,9 C 11,1 C 97 % 984,8 hPa 0,0 l/m 0 min 0 min 0 W/m 3,2 km/h (1 Bft) 97,87 %
20.10.2023 03:56 14,9 C 13,9 C 11,1 C 97 % 984,8 hPa 0,0 l/m 0 min 0 min 0 W/m 3,2 km/h (1 Bft) 97,87 %
20.10.2023 03:58 14,9 C 13,9 C 11,1 C 97 % 984,7 hPa 0,0 l/m 0 min 0 min 0 W/m 0,0 km/h (0 Bft) 97,87 %
20.10.2023 04:00 14,9 C 13,9 C 11,1 C 97 % 984,7 hPa 0,0 l/m 0 min 0 min 0 W/m 0,0 km/h (0 Bft) 95,74 %
20.10.2023 04:02 14,9 C 13,9 C 11,1 C 97 % 984,6 hPa 0,0 l/m 0 min 0 min 0 W/m 3,2 km/h (1 Bft) 97,83 %
20.10.2023 04:04 14,9 C 13,9 C 11,1 C 97 % 984,5 hPa 0,0 l/m 0 min 0 min 0 W/m 3,2 km/h (1 Bft) 95,24 %
20.10.2023 04:06 14,9 C 13,9 C 11,1 C 97 % 984,6 hPa 0,0 l/m 0 min 0 min 0 W/m 3,2 km/h (1 Bft) 97,87 %
20.10.2023 04:08 14,9 C 13,9 C 11,1 C 97 % 984,5 hPa 0,0 l/m 0 min 0 min 0 W/m 3,2 km/h (1 Bft) 100,00 %
20.10.2023 04:10 14,9 C 13,9 C 11,1 C 97 % 984,5 hPa 0,0 l/m 0 min 0 min 0 W/m 6,4 km/h (2 Bft) 100,00 %
20.10.2023 04:12 14,9 C 13,9 C 11,1 C 97 % 984,5 hPa 0,0 l/m 0 min 0 min 0 W/m 3,2 km/h (1 Bft) 100,00 %
20.10.2023 04:14 14,9 C 13,9 C 11,1 C 97 % 984,4 hPa 0,0 l/m 0 min 0 min 0 W/m 3,2 km/h (1 Bft) 100,00 %
20.10.2023 04:16 14,9 C 13,9 C 11,1 C 97 % 984,4 hPa 0,0 l/m 0 min 0 min 0 W/m 0,0 km/h (0 Bft) 97,87 %
20.10.2023 04:18 14,9 C 13,9 C 11,1 C 97 % 984,4 hPa 0,0 l/m 0 min 0 min 0 W/m 3,2 km/h (1 Bft) 100,00 %
20.10.2023 04:20 14,9 C 13,9 C 11,1 C 97 % 984,3 hPa 0,0 l/m 0 min 0 min 0 W/m 3,2 km/h (1 Bft) 100,00 %
20.10.2023 04:22 14,9 C 13,9 C 11,1 C 97 % 984,3 hPa 0,0 l/m 0 min 0 min 0 W/m 3,2 km/h (1 Bft) 100,00 %
20.10.2023 04:24 14,9 C 13,9 C 11,1 C 97 % 984,2 hPa 0,0 l/m 0 min 0 min 0 W/m 3,2 km/h (1 Bft) 100,00 %
20.10.2023 04:26 14,9 C 13,9 C 11,1 C 97 % 984,1 hPa 0,0 l/m 0 min 0 min 0 W/m 3,2 km/h (1 Bft) 97,87 %
20.10.2023 04:28 14,9 C 13,9 C 11,1 C 97 % 984,0 hPa 0,0 l/m 0 min 0 min 0 W/m 3,2 km/h (1 Bft) 100,00 %
20.10.2023 04:30 14,9 C 13,9 C 11,1 C 97 % 983,9 hPa 0,0 l/m 0 min 0 min 0 W/m 6,4 km/h (2 Bft) 100,00 %
20.10.2023 04:32 14,9 C 13,9 C 11,1 C 97 % 984,0 hPa 0,0 l/m 0 min 0 min 0 W/m 3,2 km/h (1 Bft) 100,00 %
20.10.2023 04:34 14,9 C 13,9 C 11,1 C 97 % 984,0 hPa 0,0 l/m 0 min 0 min 0 W/m 6,4 km/h (2 Bft) 97,87 %
20.10.2023 04:36 14,9 C 14,4 C 11,1 C 97 % 983,9 hPa 0,0 l/m 0 min 0 min 0 W/m 6,4 km/h (2 Bft) 100,00 %
20.10.2023 04:38 14,9 C 14,4 C 11,1 C 97 % 983,9 hPa 0,0 l/m 0 min 0 min 0 W/m 9,7 km/h (2 Bft) 100,00 %
20.10.2023 04:40 14,9 C 14,4 C 11,1 C 97 % 983,8 hPa 0,0 l/m 0 min 0 min 0 W/m 6,4 km/h (2 Bft) 100,00 %
20.10.2023 04:42 15,0 C 14,4 C 11,1 C 97 % 983,8 hPa 0,0 l/m 0 min 0 min 0 W/m 3,2 km/h (1 Bft) 100,00 %
20.10.2023 04:44 15,0 C 14,4 C 11,1 C 97 % 983,8 hPa 0,0 l/m 0 min 0 min 0 W/m 6,4 km/h (2 Bft) 100,00 %
20.10.2023 04:46 15,0 C 14,4 C 11,1 C 97 % 983,7 hPa 0,0 l/m 0 min 0 min 0 W/m 6,4 km/h (2 Bft) 100,00 %
20.10.2023 04:48 15,0 C 14,4 C 11,1 C 97 % 983,6 hPa 0,0 l/m 0 min 0 min 0 W/m 6,4 km/h (2 Bft) 97,87 %
20.10.2023 04:50 15,0 C 14,4 C 11,1 C 97 % 983,5 hPa 0,0 l/m 0 min 0 min 0 W/m 6,4 km/h (2 Bft) 100,00 %
20.10.2023 04:52 15,0 C 14,4 C 11,1 C 97 % 983,5 hPa 0,0 l/m 0 min 0 min 0 W/m 9,7 km/h (2 Bft) 100,00 %
20.10.2023 04:54 15,0 C 14,4 C 11,1 C 97 % 983,4 hPa 0,0 l/m 0 min 0 min 0 W/m 6,4 km/h (2 Bft) 100,00 %
20.10.2023 04:56 15,0 C 14,4 C 11,1 C 97 % 983,3 hPa 0,0 l/m 0 min 0 min 0 W/m 3,2 km/h (1 Bft) 100,00 %
20.10.2023 04:58 15,0 C 14,4 C 11,1 C 97 % 983,3 hPa 0,0 l/m 0 min 0 min 0 W/m 3,2 km/h (1 Bft) 100,00 %
20.10.2023 05:00 15,0 C 14,4 C 11,1 C 97 % 983,3 hPa 0,0 l/m 0 min 0 min 0 W/m 12,9 km/h (3 Bft) 100,00 %
20.10.2023 05:02 15,0 C 14,4 C 11,1 C 97 % 983,3 hPa 0,0 l/m 0 min 0 min 0 W/m 3,2 km/h (1 Bft) 100,00 %
20.10.2023 05:04 15,0 C 14,4 C 11,1 C 97 % 983,3 hPa 0,0 l/m 0 min 0 min 0 W/m 6,4 km/h (2 Bft) 96,00 %
20.10.2023 05:06 15,0 C 14,4 C 11,1 C 97 % 983,2 hPa 0,0 l/m 0 min 0 min 0 W/m 9,7 km/h (2 Bft) 95,65 %
20.10.2023 05:08 15,0 C 14,4 C 11,1 C 97 % 983,1 hPa 0,0 l/m 0 min 0 min 0 W/m 6,4 km/h (2 Bft) 100,00 %
20.10.2023 05:10 15,0 C 14,4 C 11,1 C 97 % 983,0 hPa 0,0 l/m 0 min 0 min 0 W/m 6,4 km/h (2 Bft) 100,00 %
20.10.2023 05:12 15,0 C 14,4 C 11,1 C 97 % 982,9 hPa 0,0 l/m 0 min 0 min 0 W/m 12,9 km/h (3 Bft) 97,87 %
20.10.2023 05:14 15,0 C 14,4 C 11,1 C 97 % 982,8 hPa 0,0 l/m 0 min 0 min 0 W/m 3,2 km/h (1 Bft) 97,87 %
20.10.2023 05:16 15,0 C 14,4 C 11,1 C 97 % 982,7 hPa 0,0 l/m 0 min 0 min 0 W/m 6,4 km/h (2 Bft) 100,00 %
20.10.2023 05:18 15,1 C 14,4 C 11,1 C 97 % 982,7 hPa 0,0 l/m 0 min 0 min 0 W/m 6,4 km/h (2 Bft) 97,87 %
20.10.2023 05:20 15,1 C 14,4 C 11,1 C 97 % 982,7 hPa 0,0 l/m 0 min 0 min 0 W/m 6,4 km/h (2 Bft) 97,87 %
20.10.2023 05:22 15,1 C 14,4 C 11,1 C 97 % 982,7 hPa 0,0 l/m 0 min 0 min 0 W/m 3,2 km/h (1 Bft) 93,48 %
20.10.2023 05:24 15,1 C 14,4 C 11,1 C 97 % 982,7 hPa 0,0 l/m 0 min 0 min 0 W/m 6,4 km/h (2 Bft) 95,74 %
20.10.2023 05:26 15,1 C 14,4 C 11,1 C 97 % 982,7 hPa 0,0 l/m 0 min 0 min 0 W/m 6,4 km/h (2 Bft) 97,87 %
20.10.2023 05:28 15,1 C 14,4 C 11,1 C 97 % 982,8 hPa 0,0 l/m 0 min 0 min 0 W/m 6,4 km/h (2 Bft) 95,74 %
20.10.2023 05:30 15,1 C 14,4 C 11,1 C 97 % 982,8 hPa 0,0 l/m 0 min 0 min 0 W/m 9,7 km/h (2 Bft) 95,74 %
20.10.2023 05:32 15,1 C 14,4 C 11,1 C 97 % 982,7 hPa 0,0 l/m 0 min 0 min 0 W/m 6,4 km/h (2 Bft) 93,62 %
20.10.2023 05:34 15,1 C 14,4 C 11,1 C 97 % 982,7 hPa 0,0 l/m 0 min 0 min 0 W/m 3,2 km/h (1 Bft) 97,83 %
20.10.2023 05:36 15,1 C 14,4 C 11,1 C 97 % 982,7 hPa 0,0 l/m 0 min 0 min 0 W/m 3,2 km/h (1 Bft) 95,74 %
20.10.2023 05:38 15,1 C 14,4 C 11,1 C 97 % 982,6 hPa 0,0 l/m 0 min 0 min 0 W/m 9,7 km/h (2 Bft) 93,62 %
20.10.2023 05:40 15,1 C 14,4 C 11,1 C 97 % 982,6 hPa 0,0 l/m 0 min 0 min 0 W/m 6,4 km/h (2 Bft) 91,49 %
20.10.2023 05:42 15,1 C 14,4 C 11,1 C 97 % 982,5 hPa 0,0 l/m 0 min 0 min 0 W/m 9,7 km/h (2 Bft) 93,62 %
20.10.2023 05:44 15,1 C 14,4 C 11,1 C 97 % 982,5 hPa 0,0 l/m 0 min 0 min 0 W/m 9,7 km/h (2 Bft) 93,62 %
20.10.2023 05:46 15,1 C 14,4 C 11,1 C 97 % 982,6 hPa 0,0 l/m 0 min 0 min 0 W/m 3,2 km/h (1 Bft) 93,62 %
20.10.2023 05:48 15,1 C 14,4 C 11,1 C 97 % 982,7 hPa 0,0 l/m 0 min 0 min 0 W/m 9,7 km/h (2 Bft) 91,30 %
20.10.2023 05:50 15,1 C 14,4 C 11,1 C 97 % 982,7 hPa 0,0 l/m 0 min 0 min 0 W/m 6,4 km/h (2 Bft) 91,49 %
20.10.2023 05:52 15,1 C 14,4 C 11,1 C 97 % 982,5 hPa 0,0 l/m 0 min 0 min 0 W/m 6,4 km/h (2 Bft) 93,62 %
20.10.2023 05:54 15,1 C 14,4 C 11,1 C 97 % 982,4 hPa 0,0 l/m 0 min 0 min 0 W/m 6,4 km/h (2 Bft) 87,23 %
20.10.2023 05:56 15,1 C 14,4 C 11,1 C 97 % 982,2 hPa 0,0 l/m 0 min 0 min 0 W/m 9,7 km/h (2 Bft) 95,74 %
20.10.2023 05:58 15,1 C 14,4 C 11,1 C 97 % 982,2 hPa 0,0 l/m 0 min 0 min 0 W/m 6,4 km/h (2 Bft) 91,49 %
20.10.2023 06:00 15,1 C 14,4 C 11,1 C 97 % 982,2 hPa 0,0 l/m 0 min 0 min 0 W/m 6,4 km/h (2 Bft) 93,62 %
20.10.2023 06:02 15,1 C 14,4 C 11,1 C 97 % 982,3 hPa 0,0 l/m 0 min 0 min 0 W/m 6,4 km/h (2 Bft) 97,83 %
20.10.2023 06:04 15,1 C 14,4 C 11,1 C 97 % 982,2 hPa 0,0 l/m 0 min 0 min 0 W/m 6,4 km/h (2 Bft) 95,92 %
20.10.2023 06:08 15,1 C 14,4 C 11,1 C 97 % 982,1 hPa 0,0 l/m 0 min 0 min 0 W/m 3,2 km/h (1 Bft) 96,81 %
20.10.2023 06:10 15,1 C 14,4 C 11,1 C 97 % 982,2 hPa 0,0 l/m 0 min 0 min 0 W/m 6,4 km/h (2 Bft) 97,87 %
20.10.2023 06:12 15,1 C 14,4 C 11,1 C 97 % 982,2 hPa 0,0 l/m 0 min 0 min 0 W/m 3,2 km/h (1 Bft) 97,87 %
20.10.2023 06:14 15,1 C 14,4 C 11,1 C 97 % 982,2 hPa 0,0 l/m 0 min 0 min 0 W/m 6,4 km/h (2 Bft) 97,83 %
20.10.2023 06:16 15,1 C 14,4 C 11,1 C 97 % 982,1 hPa 0,0 l/m 0 min 0 min 0 W/m 6,4 km/h (2 Bft) 97,87 %
20.10.2023 06:18 15,1 C 14,4 C 11,1 C 97 % 982,0 hPa 0,0 l/m 0 min 0 min 0 W/m 6,4 km/h (2 Bft) 97,87 %
20.10.2023 06:20 15,1 C 14,4 C 11,1 C 97 % 982,0 hPa 0,0 l/m 0 min 0 min 0 W/m 3,2 km/h (1 Bft) 97,87 %
20.10.2023 06:22 15,1 C 14,4 C 11,1 C 97 % 982,0 hPa 0,0 l/m 0 min 0 min 0 W/m 9,7 km/h (2 Bft) 97,87 %
20.10.2023 06:24 15,1 C 14,4 C 11,1 C 97 % 982,0 hPa 0,0 l/m 0 min 0 min 0 W/m 6,4 km/h (2 Bft) 95,74 %
20.10.2023 06:26 15,1 C 14,4 C 11,1 C 96 % 981,8 hPa 0,0 l/m 0 min 0 min 0 W/m 6,4 km/h (2 Bft) 100,00 %
20.10.2023 06:28 15,1 C 14,4 C 11,1 C 97 % 981,8 hPa 0,0 l/m 0 min 0 min 0 W/m 6,4 km/h (2 Bft) 93,48 %
20.10.2023 06:30 15,2 C 14,4 C 11,1 C 97 % 981,8 hPa 0,0 l/m 0 min 0 min 0 W/m 6,4 km/h (2 Bft) 100,00 %
20.10.2023 06:32 15,2 C 14,4 C 11,1 C 97 % 981,8 hPa 0,0 l/m 0 min 0 min 0 W/m 6,4 km/h (2 Bft) 100,00 %
20.10.2023 06:34 15,2 C 14,4 C 11,1 C 97 % 981,8 hPa 0,0 l/m 0 min 0 min 0 W/m 9,7 km/h (2 Bft) 100,00 %
20.10.2023 06:36 15,2 C 15,0 C 11,7 C 97 % 981,5 hPa 0,0 l/m 0 min 0 min 0 W/m 6,4 km/h (2 Bft) 98,18 %
20.10.2023 06:38 15,2 C 15,0 C 11,7 C 97 % 981,4 hPa 0,0 l/m 0 min 0 min 0 W/m 9,7 km/h (2 Bft) 100,00 %
20.10.2023 06:40 15,2 C 14,4 C 11,7 C 96 % 981,3 hPa 0,0 l/m 0 min 0 min 0 W/m 3,2 km/h (1 Bft) 100,00 %
20.10.2023 06:42 15,2 C 14,4 C 11,1 C 96 % 981,2 hPa 0,0 l/m 0 min 0 min 0 W/m 6,4 km/h (2 Bft) 100,00 %
20.10.2023 06:44 15,2 C 14,4 C 11,1 C 96 % 981,2 hPa 0,0 l/m 0 min 0 min 0 W/m 6,4 km/h (2 Bft) 100,00 %
20.10.2023 06:46 15,2 C 14,4 C 11,1 C 96 % 981,1 hPa 0,0 l/m 0 min 0 min 0 W/m 3,2 km/h (1 Bft) 100,00 %
20.10.2023 06:48 15,2 C 14,4 C 11,1 C 96 % 981,2 hPa 0,0 l/m 0 min 0 min 0 W/m 3,2 km/h (1 Bft) 100,00 %
20.10.2023 06:50 15,2 C 14,4 C 11,1 C 96 % 981,1 hPa 0,0 l/m 0 min 0 min 0 W/m 3,2 km/h (1 Bft) 100,00 %
20.10.2023 06:52 15,2 C 14,4 C 11,1 C 96 % 981,0 hPa 0,0 l/m 0 min 0 min 0 W/m 3,2 km/h (1 Bft) 100,00 %
20.10.2023 06:54 15,2 C 14,4 C 11,1 C 96 % 981,0 hPa 0,0 l/m 0 min 0 min 0 W/m 3,2 km/h (1 Bft) 100,00 %
20.10.2023 06:56 15,2 C 14,4 C 11,1 C 96 % 981,0 hPa 0,0 l/m 0 min 0 min 0 W/m 3,2 km/h (1 Bft) 97,83 %
20.10.2023 06:58 15,2 C 14,4 C 11,1 C 96 % 981,0 hPa 0,0 l/m 0 min 0 min 0 W/m 6,4 km/h (2 Bft) 93,62 %
20.10.2023 07:00 15,2 C 14,4 C 11,1 C 96 % 980,9 hPa 0,0 l/m 0 min 0 min 0 W/m 0,0 km/h (0 Bft) 100,00 %
20.10.2023 07:02 15,2 C 14,4 C 11,1 C 96 % 980,8 hPa 0,0 l/m 0 min 0 min 0 W/m 3,2 km/h (1 Bft) 100,00 %
20.10.2023 07:04 15,2 C 14,4 C 11,1 C 96 % 980,8 hPa 0,0 l/m 0 min 0 min 0 W/m 6,4 km/h (2 Bft) 100,00 %
20.10.2023 07:06 15,2 C 14,4 C 11,1 C 96 % 980,7 hPa 0,0 l/m 0 min 0 min 0 W/m 3,2 km/h (1 Bft) 95,74 %
20.10.2023 07:08 15,2 C 14,4 C 11,1 C 96 % 980,7 hPa 0,0 l/m 0 min 0 min 0 W/m 3,2 km/h (1 Bft) 100,00 %
20.10.2023 07:10 15,2 C 14,4 C 11,1 C 96 % 980,7 hPa 0,0 l/m 0 min 0 min 0 W/m 3,2 km/h (1 Bft) 100,00 %
20.10.2023 07:12 15,1 C 14,4 C 11,1 C 96 % 980,7 hPa 0,0 l/m 0 min 0 min 0 W/m 0,0 km/h (0 Bft) 97,87 %
20.10.2023 07:14 15,1 C 13,9 C 11,1 C 96 % 980,5 hPa 0,0 l/m 0 min 0 min 0 W/m 0,0 km/h (0 Bft) 100,00 %
20.10.2023 07:16 15,1 C 13,9 C 11,1 C 96 % 980,6 hPa 0,0 l/m 0 min 0 min 0 W/m 0,0 km/h (0 Bft) 97,87 %
20.10.2023 07:18 15,1 C 14,4 C 11,1 C 96 % 980,5 hPa 0,0 l/m 0 min 0 min 0 W/m 0,0 km/h (0 Bft) 100,00 %
20.10.2023 07:20 15,1 C 14,4 C 11,1 C 96 % 980,5 hPa 0,0 l/m 0 min 0 min 0 W/m 0,0 km/h (0 Bft) 100,00 %
20.10.2023 07:22 15,1 C 14,4 C 11,1 C 96 % 980,5 hPa 0,0 l/m 0 min 0 min 0 W/m 0,0 km/h (0 Bft) 97,83 %
20.10.2023 07:24 15,1 C 14,4 C 11,1 C 96 % 980,5 hPa 0,0 l/m 0 min 2 min 0 W/m 0,0 km/h (0 Bft) 97,87 %
20.10.2023 07:26 15,1 C 14,4 C 11,1 C 96 % 980,5 hPa 0,0 l/m 0 min 0 min 0 W/m 0,0 km/h (0 Bft) 97,87 %
20.10.2023 07:28 15,1 C 14,4 C 11,1 C 96 % 980,5 hPa 0,0 l/m 0 min 0 min 0 W/m 0,0 km/h (0 Bft) 97,87 %
20.10.2023 07:30 15,1 C 14,4 C 11,1 C 96 % 980,5 hPa 0,0 l/m 0 min 0 min 0 W/m 0,0 km/h (0 Bft) 97,87 %
20.10.2023 07:32 15,1 C 14,4 C 11,1 C 96 % 980,3 hPa 0,0 l/m 0 min 0 min 0 W/m 0,0 km/h (0 Bft) 97,87 %
20.10.2023 07:34 15,1 C 14,4 C 11,1 C 96 % 980,3 hPa 0,0 l/m 0 min 0 min 0 W/m 0,0 km/h (0 Bft) 97,83 %
20.10.2023 07:36 15,1 C 14,4 C 11,1 C 96 % 980,3 hPa 0,0 l/m 0 min 0 min 0 W/m 0,0 km/h (0 Bft) 97,87 %
20.10.2023 07:38 15,1 C 13,9 C 11,1 C 96 % 980,2 hPa 0,0 l/m 0 min 0 min 0 W/m 0,0 km/h (0 Bft) 97,87 %
20.10.2023 07:40 15,1 C 13,9 C 10,6 C 96 % 980,1 hPa 0,0 l/m 0 min 2 min 0 W/m 0,0 km/h (0 Bft) 95,74 %
20.10.2023 07:42 15,1 C 13,9 C 10,6 C 96 % 980,2 hPa 0,0 l/m 0 min 0 min 0 W/m 0,0 km/h (0 Bft) 97,87 %
20.10.2023 07:44 15,1 C 13,9 C 10,6 C 96 % 980,2 hPa 0,0 l/m 0 min 2 min 0 W/m 6,4 km/h (2 Bft) 97,87 %
20.10.2023 07:46 15,0 C 13,9 C 10,6 C 96 % 980,2 hPa 0,0 l/m 0 min 2 min 0 W/m 6,4 km/h (2 Bft) 97,87 %
20.10.2023 07:48 14,9 C 13,9 C 10,6 C 96 % 980,3 hPa 0,0 l/m 0 min 2 min 0 W/m 3,2 km/h (1 Bft) 95,65 %
20.10.2023 07:50 14,9 C 13,9 C 10,6 C 96 % 980,5 hPa 0,0 l/m 0 min 2 min 0 W/m 6,4 km/h (2 Bft) 97,87 %
20.10.2023 07:52 14,9 C 13,9 C 10,6 C 96 % 980,4 hPa 0,0 l/m 0 min 2 min 0 W/m 3,2 km/h (1 Bft) 97,87 %
20.10.2023 07:55 14,9 C 13,9 C 10,6 C 96 % 980,5 hPa 0,0 l/m 0 min 3 min 0 W/m 6,4 km/h (2 Bft) 100,00 %
20.10.2023 07:58 14,8 C 13,9 C 10,6 C 96 % 980,4 hPa 0,0 l/m 0 min 3 min 0 W/m 3,2 km/h (1 Bft) 100,00 %
20.10.2023 08:00 14,8 C 13,9 C 10,6 C 96 % 980,3 hPa 0,0 l/m 0 min 2 min 0 W/m 6,4 km/h (2 Bft) 93,62 %
20.10.2023 08:02 14,8 C 13,9 C 10,6 C 96 % 980,3 hPa 0,2 l/m 0 min 2 min 0 W/m 3,2 km/h (1 Bft) 100,00 %
20.10.2023 08:04 14,7 C 13,3 C 10,6 C 96 % 980,2 hPa 0,0 l/m 0 min 2 min 0 W/m 6,4 km/h (2 Bft) 100,00 %
20.10.2023 08:06 14,7 C 13,3 C 10,0 C 96 % 980,2 hPa 0,0 l/m 0 min 2 min 0 W/m 6,4 km/h (2 Bft) 98,53 %
20.10.2023 08:08 14,7 C 13,3 C 10,0 C 96 % 980,2 hPa 0,0 l/m 0 min 2 min 0 W/m 3,2 km/h (1 Bft) 97,14 %
20.10.2023 08:10 14,6 C 13,3 C 10,0 C 96 % 980,1 hPa 0,0 l/m 0 min 2 min 0 W/m 3,2 km/h (1 Bft) 100,00 %
20.10.2023 08:12 14,6 C 13,3 C 10,0 C 96 % 980,0 hPa 0,0 l/m 0 min 2 min 0 W/m 6,4 km/h (2 Bft) 97,83 %
20.10.2023 08:14 14,6 C 13,3 C 10,0 C 96 % 980,1 hPa 0,2 l/m 0 min 2 min 0 W/m 6,4 km/h (2 Bft) 97,87 %
20.10.2023 08:16 14,5 C 13,3 C 10,0 C 96 % 980,0 hPa 0,0 l/m 0 min 2 min 0 W/m 3,2 km/h (1 Bft) 97,87 %
20.10.2023 08:18 14,4 C 13,3 C 10,0 C 96 % 980,0 hPa 0,2 l/m 0 min 2 min 0 W/m 12,9 km/h (3 Bft) 97,87 %
20.10.2023 08:20 14,4 C 13,3 C 10,0 C 96 % 980,0 hPa 0,0 l/m 0 min 2 min 0 W/m 3,2 km/h (1 Bft) 97,87 %
20.10.2023 08:22 14,4 C 13,3 C 10,0 C 96 % 979,9 hPa 0,2 l/m 0 min 2 min 0 W/m 3,2 km/h (1 Bft) 97,87 %
20.10.2023 08:24 14,3 C 13,3 C 10,0 C 96 % 979,9 hPa 0,2 l/m 0 min 2 min 0 W/m 3,2 km/h (1 Bft) 97,87 %
20.10.2023 08:26 14,3 C 13,3 C 10,0 C 96 % 979,9 hPa 0,0 l/m 0 min 2 min 0 W/m 3,2 km/h (1 Bft) 97,83 %
20.10.2023 08:28 14,3 C 13,3 C 10,0 C 96 % 979,9 hPa 0,0 l/m 0 min 2 min 0 W/m 16,1 km/h (3 Bft) 94,87 %
20.10.2023 08:30 14,3 C 13,3 C 10,0 C 96 % 980,0 hPa 0,0 l/m 0 min 2 min 5 W/m 6,4 km/h (2 Bft) 93,62 %
20.10.2023 08:32 14,3 C 13,3 C 10,0 C 97 % 980,0 hPa 0,2 l/m 0 min 2 min 5 W/m 6,4 km/h (2 Bft) 94,55 %
20.10.2023 08:34 14,3 C 13,3 C 10,0 C 97 % 980,0 hPa 0,0 l/m 0 min 2 min 5 W/m 9,7 km/h (2 Bft) 94,74 %
20.10.2023 08:36 14,3 C 13,3 C 10,0 C 97 % 980,0 hPa 0,0 l/m 0 min 2 min 5 W/m 9,7 km/h (2 Bft) 93,62 %
20.10.2023 08:38 14,3 C 13,3 C 10,0 C 97 % 980,0 hPa 0,0 l/m 0 min 2 min 5 W/m 3,2 km/h (1 Bft) 95,74 %
20.10.2023 08:40 14,3 C 13,3 C 10,0 C 97 % 980,0 hPa 0,0 l/m 0 min 2 min 0 W/m 6,4 km/h (2 Bft) 93,62 %
20.10.2023 08:42 14,3 C 13,3 C 10,0 C 97 % 980,0 hPa 0,2 l/m 0 min 2 min 1 W/m 3,2 km/h (1 Bft) 95,74 %
20.10.2023 08:44 14,3 C 13,3 C 10,0 C 97 % 980,0 hPa 0,0 l/m 0 min 2 min 5 W/m 3,2 km/h (1 Bft) 95,74 %
20.10.2023 08:46 14,3 C 13,3 C 10,0 C 97 % 980,0 hPa 0,0 l/m 0 min 2 min 0 W/m 3,2 km/h (1 Bft) 95,65 %
20.10.2023 08:48 14,3 C 13,3 C 10,0 C 97 % 979,9 hPa 0,0 l/m 0 min 2 min 2 W/m 6,4 km/h (2 Bft) 93,62 %
20.10.2023 08:50 14,3 C 13,3 C 10,0 C 97 % 980,0 hPa 0,2 l/m 0 min 2 min 2 W/m 6,4 km/h (2 Bft) 91,49 %
20.10.2023 08:52 14,3 C 13,3 C 10,0 C 97 % 980,0 hPa 0,0 l/m 0 min 2 min 5 W/m 6,4 km/h (2 Bft) 93,62 %
20.10.2023 08:54 14,3 C 13,3 C 10,0 C 97 % 980,0 hPa 0,2 l/m 0 min 2 min 5 W/m 6,4 km/h (2 Bft) 95,74 %
20.10.2023 08:56 14,3 C 13,3 C 10,0 C 97 % 980,0 hPa 0,0 l/m 0 min 2 min 5 W/m 9,7 km/h (2 Bft) 97,87 %
20.10.2023 08:58 14,3 C 13,3 C 10,0 C 97 % 980,1 hPa 0,0 l/m 0 min 2 min 5 W/m 9,7 km/h (2 Bft) 95,74 %
20.10.2023 09:00 14,3 C 13,3 C 10,0 C 97 % 980,0 hPa 0,2 l/m 0 min 2 min 5 W/m 6,4 km/h (2 Bft) 97,83 %
20.10.2023 09:02 14,3 C 13,3 C 10,0 C 97 % 979,9 hPa 0,0 l/m 0 min 2 min 5 W/m 6,4 km/h (2 Bft) 97,87 %
20.10.2023 09:04 14,2 C 13,3 C 10,0 C 97 % 979,9 hPa 0,2 l/m 0 min 2 min 5 W/m 6,4 km/h (2 Bft) 98,04 %
20.10.2023 09:06 14,2 C 13,3 C 10,0 C 98 % 980,0 hPa 0,0 l/m 0 min 2 min 5 W/m 6,4 km/h (2 Bft) 97,87 %
20.10.2023 09:08 14,2 C 13,3 C 10,0 C 98 % 979,9 hPa 0,0 l/m 0 min 2 min 6 W/m 3,2 km/h (1 Bft) 97,87 %
20.10.2023 09:10 14,2 C 13,3 C 10,0 C 98 % 979,9 hPa 0,2 l/m 0 min 2 min 7 W/m 3,2 km/h (1 Bft) 100,00 %
20.10.2023 09:12 14,2 C 13,3 C 10,0 C 98 % 979,9 hPa 0,0 l/m 0 min 2 min 7 W/m 6,4 km/h (2 Bft) 97,83 %
20.10.2023 09:14 14,2 C 13,3 C 10,0 C 98 % 979,9 hPa 0,2 l/m 0 min 2 min 7 W/m 6,4 km/h (2 Bft) 97,87 %
20.10.2023 09:16 14,2 C 13,3 C 10,0 C 98 % 979,9 hPa 0,0 l/m 0 min 2 min 7 W/m 3,2 km/h (1 Bft) 100,00 %
20.10.2023 09:18 14,2 C 13,3 C 10,0 C 98 % 979,7 hPa 0,2 l/m 0 min 2 min 6 W/m 3,2 km/h (1 Bft) 95,74 %
20.10.2023 09:20 14,2 C 13,3 C 10,0 C 98 % 979,9 hPa 0,0 l/m 0 min 2 min 7 W/m 0,0 km/h (0 Bft) 97,87 %
20.10.2023 09:22 14,2 C 13,3 C 10,0 C 98 % 979,8 hPa 0,2 l/m 0 min 2 min 7 W/m 3,2 km/h (1 Bft) 97,87 %
20.10.2023 09:24 14,2 C 13,3 C 10,0 C 98 % 979,9 hPa 0,2 l/m 0 min 2 min 7 W/m 9,7 km/h (2 Bft) 97,87 %
20.10.2023 09:26 14,2 C 13,3 C 10,0 C 98 % 979,9 hPa 0,2 l/m 0 min 2 min 7 W/m 6,4 km/h (2 Bft) 95,65 %
20.10.2023 09:28 14,2 C 13,3 C 10,0 C 98 % 979,8 hPa 0,0 l/m 0 min 2 min 5 W/m 6,4 km/h (2 Bft) 95,74 %
20.10.2023 09:30 14,2 C 13,3 C 10,0 C 98 % 979,8 hPa 0,2 l/m 0 min 2 min 7 W/m 6,4 km/h (2 Bft) 100,00 %
20.10.2023 09:32 14,2 C 13,3 C 10,0 C 98 % 979,8 hPa 0,2 l/m 0 min 2 min 7 W/m 6,4 km/h (2 Bft) 93,62 %
20.10.2023 09:34 14,2 C 13,3 C 10,0 C 98 % 979,8 hPa 0,0 l/m 0 min 2 min 7 W/m 6,4 km/h (2 Bft) 98,00 %
20.10.2023 09:36 14,2 C 13,3 C 10,0 C 98 % 979,7 hPa 0,2 l/m 0 min 2 min 9 W/m 6,4 km/h (2 Bft) 97,87 %
20.10.2023 09:38 14,1 C 13,3 C 10,0 C 98 % 979,7 hPa 0,2 l/m 0 min 2 min 10 W/m 6,4 km/h (2 Bft) 97,87 %
20.10.2023 09:40 14,2 C 13,3 C 10,0 C 98 % 979,7 hPa 0,2 l/m 0 min 2 min 11 W/m 9,7 km/h (2 Bft) 95,74 %
20.10.2023 09:42 14,2 C 13,3 C 10,0 C 98 % 979,7 hPa 0,2 l/m 0 min 2 min 11 W/m 6,4 km/h (2 Bft) 93,62 %
20.10.2023 09:44 14,2 C 13,3 C 10,0 C 98 % 979,7 hPa 0,0 l/m 0 min 2 min 11 W/m 9,7 km/h (2 Bft) 97,87 %
20.10.2023 09:46 14,2 C 13,3 C 10,0 C 98 % 979,7 hPa 0,4 l/m 0 min 2 min 11 W/m 6,4 km/h (2 Bft) 95,74 %
20.10.2023 09:48 14,2 C 13,3 C 10,0 C 98 % 979,7 hPa 0,0 l/m 0 min 2 min 9 W/m 9,7 km/h (2 Bft) 97,87 %
20.10.2023 09:50 14,2 C 13,3 C 10,0 C 98 % 979,7 hPa 0,2 l/m 0 min 2 min 10 W/m 6,4 km/h (2 Bft) 100,00 %
20.10.2023 09:52 14,2 C 13,3 C 10,0 C 98 % 979,8 hPa 0,2 l/m 0 min 2 min 11 W/m 6,4 km/h (2 Bft) 97,87 %
20.10.2023 09:54 14,2 C 13,3 C 10,0 C 98 % 979,7 hPa 0,2 l/m 0 min 2 min 16 W/m 6,4 km/h (2 Bft) 100,00 %
20.10.2023 09:56 14,2 C 13,3 C 10,6 C 98 % 979,7 hPa 0,2 l/m 0 min 2 min 21 W/m 6,4 km/h (2 Bft) 97,87 %
20.10.2023 09:58 14,2 C 13,3 C 10,6 C 98 % 979,7 hPa 0,2 l/m 0 min 2 min 20 W/m 6,4 km/h (2 Bft) 100,00 %
20.10.2023 10:00 14,2 C 13,3 C 10,6 C 98 % 979,7 hPa 0,4 l/m 0 min 2 min 19 W/m 6,4 km/h (2 Bft) 97,87 %
20.10.2023 10:02 14,2 C 13,3 C 10,6 C 98 % 979,7 hPa 0,2 l/m 0 min 2 min 19 W/m 6,4 km/h (2 Bft) 100,00 %
20.10.2023 10:04 14,2 C 13,3 C 10,6 C 98 % 979,7 hPa 0,2 l/m 0 min 2 min 19 W/m 6,4 km/h (2 Bft) 100,00 %
20.10.2023 10:06 14,2 C 13,3 C 10,6 C 98 % 979,8 hPa 0,2 l/m 0 min 2 min 20 W/m 3,2 km/h (1 Bft) 100,00 %
20.10.2023 10:08 14,2 C 13,3 C 10,6 C 98 % 979,7 hPa 0,2 l/m 0 min 2 min 18 W/m 6,4 km/h (2 Bft) 100,00 %
20.10.2023 10:10 14,2 C 13,3 C 10,6 C 98 % 979,7 hPa 0,2 l/m 0 min 2 min 19 W/m 9,7 km/h (2 Bft) 100,00 %
20.10.2023 10:12 14,2 C 13,3 C 10,6 C 98 % 979,7 hPa 0,2 l/m 0 min 2 min 21 W/m 3,2 km/h (1 Bft) 100,00 %
20.10.2023 10:14 14,2 C 13,3 C 10,6 C 98 % 979,7 hPa 0,2 l/m 0 min 2 min 23 W/m 9,7 km/h (2 Bft) 100,00 %
20.10.2023 10:16 14,2 C 13,3 C 10,6 C 98 % 979,7 hPa 0,2 l/m 0 min 2 min 19 W/m 6,4 km/h (2 Bft) 100,00 %
20.10.2023 10:18 14,2 C 13,3 C 10,6 C 98 % 979,7 hPa 0,2 l/m 0 min 2 min 17 W/m 9,7 km/h (2 Bft) 100,00 %
20.10.2023 10:20 14,2 C 13,3 C 10,6 C 98 % 979,7 hPa 0,2 l/m 0 min 2 min 19 W/m 6,4 km/h (2 Bft) 100,00 %
20.10.2023 10:22 14,2 C 13,3 C 10,6 C 98 % 979,7 hPa 0,2 l/m 0 min 2 min 18 W/m 3,2 km/h (1 Bft) 100,00 %
20.10.2023 10:24 14,2 C 13,3 C 10,6 C 99 % 979,9 hPa 0,2 l/m 0 min 2 min 16 W/m 6,4 km/h (2 Bft) 100,00 %
20.10.2023 10:26 14,2 C 13,3 C 10,6 C 99 % 979,9 hPa 0,2 l/m 0 min 2 min 17 W/m 6,4 km/h (2 Bft) 100,00 %
20.10.2023 10:28 14,2 C 13,3 C 10,6 C 99 % 980,0 hPa 0,2 l/m 0 min 2 min 15 W/m 6,4 km/h (2 Bft) 100,00 %
20.10.2023 10:30 14,2 C 13,3 C 10,6 C 99 % 979,9 hPa 0,2 l/m 0 min 2 min 18 W/m 6,4 km/h (2 Bft) 100,00 %
20.10.2023 10:32 14,2 C 13,3 C 10,6 C 99 % 979,9 hPa 0,2 l/m 0 min 2 min 20 W/m 6,4 km/h (2 Bft) 100,00 %
20.10.2023 10:34 14,2 C 13,3 C 10,6 C 99 % 979,9 hPa 0,2 l/m 0 min 2 min 18 W/m 6,4 km/h (2 Bft) 100,00 %
20.10.2023 10:36 14,2 C 13,3 C 10,6 C 99 % 979,9 hPa 0,2 l/m 0 min 2 min 17 W/m 6,4 km/h (2 Bft) 97,87 %
20.10.2023 10:38 14,2 C 13,3 C 10,6 C 99 % 979,9 hPa 0,2 l/m 0 min 2 min 20 W/m 9,7 km/h (2 Bft) 100,00 %
20.10.2023 10:40 14,2 C 13,3 C 10,6 C 99 % 979,9 hPa 0,2 l/m 0 min 2 min 22 W/m 6,4 km/h (2 Bft) 100,00 %
20.10.2023 10:42 14,2 C 13,3 C 10,6 C 99 % 979,9 hPa 0,0 l/m 0 min 2 min 24 W/m 6,4 km/h (2 Bft) 100,00 %
20.10.2023 10:44 14,2 C 13,3 C 10,6 C 99 % 979,9 hPa 0,0 l/m 0 min 2 min 22 W/m 9,7 km/h (2 Bft) 97,87 %
20.10.2023 10:46 14,2 C 13,3 C 10,6 C 99 % 979,9 hPa 0,2 l/m 0 min 2 min 24 W/m 9,7 km/h (2 Bft) 97,87 %
20.10.2023 10:48 14,2 C 13,3 C 10,6 C 99 % 979,9 hPa 0,0 l/m 0 min 2 min 25 W/m 6,4 km/h (2 Bft) 100,00 %
20.10.2023 10:50 14,2 C 13,3 C 10,6 C 99 % 979,9 hPa 0,0 l/m 0 min 2 min 24 W/m 3,2 km/h (1 Bft) 100,00 %
20.10.2023 10:52 14,2 C 13,3 C 10,6 C 99 % 979,9 hPa 0,2 l/m 0 min 2 min 25 W/m 6,4 km/h (2 Bft) 97,87 %
20.10.2023 10:54 14,2 C 13,3 C 10,6 C 99 % 979,9 hPa 0,0 l/m 0 min 2 min 29 W/m 6,4 km/h (2 Bft) 100,00 %
20.10.2023 10:56 14,2 C 13,3 C 10,6 C 99 % 979,9 hPa 0,2 l/m 0 min 2 min 30 W/m 6,4 km/h (2 Bft) 93,62 %
20.10.2023 10:58 14,2 C 13,3 C 10,6 C 99 % 979,9 hPa 0,2 l/m 0 min 2 min 26 W/m 9,7 km/h (2 Bft) 97,87 %
20.10.2023 11:00 14,2 C 13,3 C 10,6 C 99 % 979,9 hPa 0,2 l/m 0 min 2 min 26 W/m 9,7 km/h (2 Bft) 97,87 %
20.10.2023 11:02 14,2 C 13,3 C 10,6 C 99 % 979,8 hPa 0,0 l/m 0 min 2 min 28 W/m 6,4 km/h (2 Bft) 93,62 %
20.10.2023 11:04 14,2 C 13,3 C 10,6 C 99 % 979,9 hPa 0,2 l/m 0 min 2 min 26 W/m 6,4 km/h (2 Bft) 97,96 %
20.10.2023 11:06 14,2 C 13,3 C 10,6 C 99 % 979,9 hPa 0,2 l/m 0 min 2 min 29 W/m 6,4 km/h (2 Bft) 96,55 %
20.10.2023 11:08 14,3 C 13,3 C 10,6 C 99 % 979,9 hPa 0,0 l/m 0 min 2 min 30 W/m 3,2 km/h (1 Bft) 97,14 %
20.10.2023 11:10 14,3 C 13,3 C 10,6 C 99 % 979,8 hPa 0,2 l/m 0 min 2 min 30 W/m 6,4 km/h (2 Bft) 95,74 %
20.10.2023 11:12 14,3 C 13,3 C 10,6 C 99 % 979,8 hPa 0,2 l/m 0 min 2 min 30 W/m 9,7 km/h (2 Bft) 97,87 %
20.10.2023 11:14 14,3 C 13,3 C 10,6 C 99 % 979,7 hPa 0,2 l/m 0 min 2 min 32 W/m 9,7 km/h (2 Bft) 95,74 %
20.10.2023 11:16 14,2 C 13,3 C 10,6 C 99 % 979,8 hPa 0,2 l/m 0 min 2 min 30 W/m 6,4 km/h (2 Bft) 91,49 %
20.10.2023 11:18 14,2 C 13,3 C 10,6 C 99 % 979,9 hPa 0,0 l/m 0 min 2 min 32 W/m 9,7 km/h (2 Bft) 95,74 %
20.10.2023 11:20 14,2 C 13,3 C 10,6 C 99 % 979,9 hPa 0,2 l/m 0 min 2 min 39 W/m 9,7 km/h (2 Bft) 93,62 %
20.10.2023 11:22 14,2 C 13,3 C 10,6 C 99 % 979,8 hPa 0,0 l/m 0 min 2 min 42 W/m 9,7 km/h (2 Bft) 89,13 %
20.10.2023 11:24 14,2 C 13,3 C 10,6 C 99 % 979,8 hPa 0,2 l/m 0 min 2 min 40 W/m 9,7 km/h (2 Bft) 93,62 %
20.10.2023 11:26 14,2 C 13,3 C 10,6 C 99 % 979,9 hPa 0,2 l/m 0 min 2 min 35 W/m 6,4 km/h (2 Bft) 91,49 %
20.10.2023 11:28 14,2 C 13,3 C 10,6 C 99 % 979,9 hPa 0,0 l/m 0 min 2 min 31 W/m 6,4 km/h (2 Bft) 93,62 %
20.10.2023 11:30 14,2 C 13,3 C 10,6 C 99 % 979,9 hPa 0,2 l/m 0 min 2 min 26 W/m 3,2 km/h (1 Bft) 93,62 %
20.10.2023 11:32 14,2 C 13,3 C 10,6 C 99 % 979,8 hPa 0,4 l/m 0 min 2 min 27 W/m 3,2 km/h (1 Bft) 93,62 %
20.10.2023 11:34 14,2 C 13,3 C 10,6 C 99 % 979,7 hPa 0,2 l/m 0 min 2 min 31 W/m 6,4 km/h (2 Bft) 93,62 %
20.10.2023 11:36 14,2 C 13,3 C 10,6 C 99 % 979,7 hPa 0,2 l/m 0 min 2 min 35 W/m 6,4 km/h (2 Bft) 93,48 %
20.10.2023 11:38 14,2 C 13,3 C 10,6 C 99 % 979,7 hPa 0,2 l/m 0 min 2 min 30 W/m 6,4 km/h (2 Bft) 93,62 %
20.10.2023 11:40 14,2 C 13,3 C 10,6 C 99 % 979,7 hPa 0,0 l/m 0 min 2 min 26 W/m 6,4 km/h (2 Bft) 93,62 %
20.10.2023 11:42 14,2 C 13,3 C 10,6 C 99 % 979,7 hPa 0,2 l/m 0 min 2 min 24 W/m 6,4 km/h (2 Bft) 93,62 %
20.10.2023 11:44 14,2 C 13,3 C 10,6 C 99 % 979,6 hPa 0,0 l/m 0 min 2 min 28 W/m 9,7 km/h (2 Bft) 93,62 %
20.10.2023 11:46 14,2 C 13,3 C 10,6 C 99 % 979,7 hPa 0,2 l/m 0 min 2 min 31 W/m 3,2 km/h (1 Bft) 95,74 %
20.10.2023 11:48 14,2 C 13,3 C 10,6 C 99 % 979,7 hPa 0,0 l/m 0 min 2 min 37 W/m 6,4 km/h (2 Bft) 97,83 %
20.10.2023 11:50 14,2 C 13,3 C 10,6 C 99 % 979,7 hPa 0,2 l/m 0 min 2 min 40 W/m 9,7 km/h (2 Bft) 97,87 %
20.10.2023 11:52 14,2 C 13,3 C 10,6 C 99 % 979,7 hPa 0,0 l/m 0 min 2 min 36 W/m 6,4 km/h (2 Bft) 95,74 %
20.10.2023 11:54 14,2 C 13,3 C 10,6 C 99 % 979,7 hPa 0,2 l/m 0 min 2 min 30 W/m 6,4 km/h (2 Bft) 95,74 %
20.10.2023 11:56 14,2 C 13,3 C 10,6 C 99 % 979,7 hPa 0,2 l/m 0 min 2 min 20 W/m 6,4 km/h (2 Bft) 97,87 %
20.10.2023 11:58 14,2 C 13,3 C 10,6 C 99 % 979,9 hPa 0,0 l/m 0 min 2 min 20 W/m 9,7 km/h (2 Bft) 95,74 %
20.10.2023 12:00 14,2 C 13,3 C 10,6 C 99 % 979,8 hPa 0,2 l/m 0 min 2 min 21 W/m 3,2 km/h (1 Bft) 97,87 %
20.10.2023 12:02 14,1 C 13,3 C 10,6 C 99 % 979,7 hPa 0,0 l/m 0 min 2 min 22 W/m 6,4 km/h (2 Bft) 95,74 %
20.10.2023 12:04 14,2 C 13,3 C 10,6 C 99 % 979,8 hPa 0,2 l/m 0 min 2 min 23 W/m 6,4 km/h (2 Bft) 95,83 %
20.10.2023 12:08 14,1 C 13,3 C 10,6 C 99 % 979,8 hPa 0,0 l/m 0 min 4 min 25 W/m 9,7 km/h (2 Bft) 97,92 %
20.10.2023 12:10 14,2 C 13,3 C 10,6 C 99 % 979,8 hPa 0,2 l/m 0 min 2 min 29 W/m 6,4 km/h (2 Bft) 97,87 %
20.10.2023 12:12 14,1 C 13,3 C 10,6 C 99 % 979,7 hPa 0,0 l/m 0 min 2 min 34 W/m 6,4 km/h (2 Bft) 100,00 %
20.10.2023 12:14 14,2 C 13,3 C 10,6 C 99 % 979,7 hPa 0,0 l/m 0 min 2 min 39 W/m 3,2 km/h (1 Bft) 97,87 %
20.10.2023 12:16 14,2 C 13,3 C 10,6 C 99 % 979,7 hPa 0,2 l/m 0 min 2 min 39 W/m 9,7 km/h (2 Bft) 95,65 %
20.10.2023 12:18 14,2 C 13,3 C 10,6 C 99 % 979,8 hPa 0,0 l/m 0 min 2 min 42 W/m 3,2 km/h (1 Bft) 95,74 %
20.10.2023 12:20 14,2 C 13,3 C 10,6 C 99 % 979,7 hPa 0,0 l/m 0 min 2 min 40 W/m 6,4 km/h (2 Bft) 100,00 %
20.10.2023 12:22 14,2 C 13,3 C 10,6 C 99 % 979,7 hPa 0,0 l/m 0 min 2 min 39 W/m 6,4 km/h (2 Bft) 97,87 %
20.10.2023 12:24 14,3 C 13,3 C 10,6 C 99 % 979,7 hPa 0,2 l/m 0 min 2 min 39 W/m 9,7 km/h (2 Bft) 97,87 %
20.10.2023 12:26 14,3 C 13,3 C 10,6 C 99 % 979,6 hPa 0,0 l/m 0 min 2 min 44 W/m 3,2 km/h (1 Bft) 100,00 %
20.10.2023 12:28 14,3 C 13,3 C 10,6 C 99 % 979,6 hPa 0,2 l/m 0 min 2 min 63 W/m 3,2 km/h (1 Bft) 97,87 %
20.10.2023 12:30 14,3 C 13,9 C 10,6 C 99 % 979,6 hPa 0,0 l/m 0 min 2 min 71 W/m 6,4 km/h (2 Bft) 100,00 %
20.10.2023 12:32 14,3 C 13,9 C 10,6 C 99 % 979,6 hPa 0,2 l/m 0 min 2 min 67 W/m 6,4 km/h (2 Bft) 100,00 %
20.10.2023 12:34 14,3 C 13,9 C 10,6 C 99 % 979,5 hPa 0,2 l/m 0 min 2 min 52 W/m 3,2 km/h (1 Bft) 95,74 %
20.10.2023 12:36 14,3 C 13,9 C 10,6 C 99 % 979,5 hPa 0,0 l/m 0 min 2 min 52 W/m 6,4 km/h (2 Bft) 100,00 %
20.10.2023 12:38 14,3 C 13,9 C 10,6 C 99 % 979,4 hPa 0,0 l/m 0 min 2 min 49 W/m 6,4 km/h (2 Bft) 100,00 %
20.10.2023 12:40 14,3 C 13,9 C 11,1 C 99 % 979,5 hPa 0,2 l/m 0 min 2 min 55 W/m 6,4 km/h (2 Bft) 97,87 %
20.10.2023 12:42 14,3 C 13,9 C 10,6 C 99 % 979,3 hPa 0,0 l/m 0 min 2 min 65 W/m 6,4 km/h (2 Bft) 97,87 %
20.10.2023 12:44 14,3 C 13,9 C 11,1 C 99 % 979,3 hPa 0,0 l/m 0 min 2 min 65 W/m 6,4 km/h (2 Bft) 100,00 %
20.10.2023 12:46 14,3 C 13,9 C 11,1 C 100 % 979,3 hPa 0,2 l/m 0 min 2 min 66 W/m 6,4 km/h (2 Bft) 95,74 %
20.10.2023 12:48 14,3 C 13,9 C 11,1 C 100 % 979,2 hPa 0,0 l/m 0 min 2 min 54 W/m 9,7 km/h (2 Bft) 100,00 %
20.10.2023 12:50 14,3 C 13,9 C 10,6 C 100 % 979,2 hPa 0,2 l/m 0 min 2 min 51 W/m 9,7 km/h (2 Bft) 97,87 %
20.10.2023 12:52 14,3 C 13,9 C 10,6 C 100 % 979,1 hPa 0,0 l/m 0 min 2 min 51 W/m 3,2 km/h (1 Bft) 97,87 %
20.10.2023 12:54 14,3 C 13,9 C 10,6 C 100 % 979,1 hPa 0,2 l/m 0 min 2 min 43 W/m 9,7 km/h (2 Bft) 98,00 %
20.10.2023 12:56 14,3 C 13,9 C 10,6 C 100 % 979,1 hPa 0,0 l/m 0 min 2 min 39 W/m 3,2 km/h (1 Bft) 95,65 %
20.10.2023 12:58 14,3 C 13,9 C 10,6 C 100 % 979,0 hPa 0,2 l/m 0 min 2 min 35 W/m 6,4 km/h (2 Bft) 97,87 %
20.10.2023 13:00 14,3 C 13,3 C 10,6 C 100 % 979,0 hPa 0,0 l/m 0 min 2 min 33 W/m 3,2 km/h (1 Bft) 100,00 %
20.10.2023 13:02 14,3 C 13,3 C 10,6 C 100 % 978,9 hPa 0,2 l/m 0 min 2 min 39 W/m 9,7 km/h (2 Bft) 100,00 %
20.10.2023 13:04 14,3 C 13,3 C 10,6 C 100 % 978,9 hPa 0,2 l/m 0 min 2 min 37 W/m 6,4 km/h (2 Bft) 95,83 %
20.10.2023 13:06 14,3 C 13,3 C 10,6 C 100 % 978,8 hPa 0,2 l/m 0 min 2 min 29 W/m 9,7 km/h (2 Bft) 100,00 %
20.10.2023 13:08 14,3 C 13,3 C 10,6 C 100 % 978,9 hPa 0,0 l/m 0 min 2 min 22 W/m 6,4 km/h (2 Bft) 97,87 %
20.10.2023 13:10 14,3 C 13,3 C 10,6 C 100 % 978,9 hPa 0,0 l/m 0 min 2 min 21 W/m 6,4 km/h (2 Bft) 95,74 %
20.10.2023 13:12 14,3 C 13,3 C 10,6 C 100 % 978,8 hPa 0,0 l/m 0 min 2 min 21 W/m 9,7 km/h (2 Bft) 97,83 %
20.10.2023 13:14 14,3 C 13,3 C 10,6 C 100 % 978,8 hPa 0,0 l/m 0 min 2 min 24 W/m 9,7 km/h (2 Bft) 97,87 %
20.10.2023 13:16 14,3 C 13,3 C 10,6 C 100 % 978,7 hPa 0,0 l/m 0 min 2 min 28 W/m 6,4 km/h (2 Bft) 93,62 %
20.10.2023 13:18 14,3 C 13,3 C 10,6 C 100 % 978,7 hPa 0,0 l/m 0 min 2 min 34 W/m 12,9 km/h (3 Bft) 97,87 %
20.10.2023 13:20 14,3 C 13,3 C 10,6 C 100 % 978,6 hPa 0,0 l/m 0 min 2 min 39 W/m 6,4 km/h (2 Bft) 97,87 %
20.10.2023 13:22 14,3 C 13,3 C 10,6 C 100 % 978,6 hPa 0,0 l/m 0 min 2 min 34 W/m 9,7 km/h (2 Bft) 95,74 %
20.10.2023 13:24 14,3 C 13,3 C 10,6 C 100 % 978,5 hPa 0,0 l/m 0 min 2 min 32 W/m 9,7 km/h (2 Bft) 97,87 %
20.10.2023 13:26 14,3 C 13,3 C 10,6 C 100 % 978,4 hPa 0,0 l/m 0 min 0 min 32 W/m 9,7 km/h (2 Bft) 97,83 %
20.10.2023 13:28 14,3 C 13,3 C 10,6 C 100 % 978,4 hPa 0,0 l/m 0 min 0 min 34 W/m 6,4 km/h (2 Bft) 97,87 %
20.10.2023 13:30 14,3 C 13,3 C 10,6 C 100 % 978,4 hPa 0,0 l/m 0 min 0 min 33 W/m 6,4 km/h (2 Bft) 97,87 %
20.10.2023 13:32 14,3 C 13,3 C 10,6 C 100 % 978,3 hPa 0,0 l/m 0 min 0 min 33 W/m 0,0 km/h (0 Bft) 95,74 %
20.10.2023 13:34 14,3 C 13,9 C 10,6 C 100 % 978,4 hPa 0,0 l/m 0 min 0 min 33 W/m 6,4 km/h (2 Bft) 97,87 %
20.10.2023 13:36 14,3 C 13,9 C 10,6 C 100 % 978,4 hPa 0,0 l/m 0 min 0 min 34 W/m 0,0 km/h (0 Bft) 97,87 %
20.10.2023 13:38 14,3 C 13,3 C 10,6 C 100 % 978,4 hPa 0,0 l/m 0 min 0 min 38 W/m 6,4 km/h (2 Bft) 95,74 %
20.10.2023 13:40 14,3 C 13,3 C 10,6 C 100 % 978,4 hPa 0,0 l/m 0 min 0 min 37 W/m 6,4 km/h (2 Bft) 93,48 %
20.10.2023 13:42 14,3 C 13,3 C 10,6 C 100 % 978,3 hPa 0,0 l/m 0 min 0 min 34 W/m 6,4 km/h (2 Bft) 97,87 %
20.10.2023 13:44 14,3 C 13,3 C 10,6 C 100 % 978,2 hPa 0,0 l/m 0 min 0 min 32 W/m 6,4 km/h (2 Bft) 97,87 %
20.10.2023 13:46 14,3 C 13,3 C 10,6 C 100 % 978,1 hPa 0,0 l/m 0 min 0 min 26 W/m 6,4 km/h (2 Bft) 95,74 %
20.10.2023 13:48 14,3 C 13,3 C 10,6 C 100 % 978,1 hPa 0,0 l/m 0 min 0 min 23 W/m 9,7 km/h (2 Bft) 97,87 %
20.10.2023 13:50 14,2 C 13,3 C 10,6 C 100 % 978,2 hPa 0,0 l/m 0 min 0 min 19 W/m 9,7 km/h (2 Bft) 97,87 %
20.10.2023 13:52 14,3 C 13,3 C 10,6 C 100 % 978,2 hPa 0,0 l/m 0 min 0 min 20 W/m 3,2 km/h (1 Bft) 95,65 %
20.10.2023 13:54 14,2 C 13,3 C 10,6 C 100 % 978,1 hPa 0,2 l/m 0 min 2 min 31 W/m 9,7 km/h (2 Bft) 97,87 %
20.10.2023 13:56 14,2 C 13,3 C 10,6 C 100 % 978,1 hPa 0,0 l/m 0 min 2 min 32 W/m 6,4 km/h (2 Bft) 97,87 %
20.10.2023 13:58 14,3 C 13,3 C 10,6 C 100 % 978,1 hPa 0,0 l/m 0 min 2 min 30 W/m 6,4 km/h (2 Bft) 97,87 %
20.10.2023 14:00 14,2 C 13,9 C 10,6 C 100 % 978,1 hPa 0,2 l/m 0 min 2 min 24 W/m 3,2 km/h (1 Bft) 95,74 %
20.10.2023 14:02 14,2 C 13,9 C 10,6 C 100 % 978,2 hPa 0,0 l/m 0 min 2 min 25 W/m 3,2 km/h (1 Bft) 97,87 %
20.10.2023 14:04 14,2 C 13,3 C 10,6 C 100 % 978,2 hPa 0,0 l/m 0 min 0 min 28 W/m 9,7 km/h (2 Bft) 95,65 %
20.10.2023 14:06 14,2 C 13,9 C 10,6 C 100 % 978,1 hPa 0,0 l/m 0 min 0 min 28 W/m 6,4 km/h (2 Bft) 97,87 %
20.10.2023 14:08 14,2 C 13,9 C 10,6 C 100 % 978,1 hPa 0,0 l/m 0 min 0 min 26 W/m 9,7 km/h (2 Bft) 97,87 %
20.10.2023 14:10 14,2 C 13,3 C 10,6 C 100 % 978,1 hPa 0,0 l/m 0 min 0 min 22 W/m 6,4 km/h (2 Bft) 95,74 %
20.10.2023 14:12 14,2 C 13,9 C 10,6 C 100 % 978,1 hPa 0,0 l/m 0 min 0 min 21 W/m 6,4 km/h (2 Bft) 95,74 %
20.10.2023 14:14 14,2 C 13,3 C 10,6 C 100 % 978,1 hPa 0,0 l/m 0 min 0 min 21 W/m 6,4 km/h (2 Bft) 95,74 %
20.10.2023 14:16 14,2 C 13,3 C 10,6 C 100 % 978,1 hPa 0,0 l/m 0 min 0 min 20 W/m 6,4 km/h (2 Bft) 93,62 %
20.10.2023 14:18 14,2 C 13,3 C 10,6 C 100 % 978,0 hPa 0,0 l/m 0 min 0 min 20 W/m 9,7 km/h (2 Bft) 93,62 %
20.10.2023 14:20 14,2 C 13,3 C 10,6 C 100 % 978,0 hPa 0,0 l/m 0 min 0 min 23 W/m 9,7 km/h (2 Bft) 95,65 %
20.10.2023 14:22 14,2 C 13,3 C 10,6 C 100 % 978,0 hPa 0,0 l/m 0 min 0 min 22 W/m 9,7 km/h (2 Bft) 95,74 %
20.10.2023 14:24 14,2 C 13,3 C 10,6 C 100 % 977,9 hPa 0,0 l/m 0 min 0 min 22 W/m 6,4 km/h (2 Bft) 95,74 %
20.10.2023 14:26 14,2 C 13,3 C 10,6 C 100 % 977,9 hPa 0,0 l/m 0 min 0 min 20 W/m 9,7 km/h (2 Bft) 93,62 %
20.10.2023 14:28 14,2 C 13,3 C 10,6 C 100 % 978,0 hPa 0,0 l/m 0 min 0 min 16 W/m 9,7 km/h (2 Bft) 95,74 %
20.10.2023 14:30 14,2 C 13,3 C 10,6 C 100 % 978,0 hPa 0,0 l/m 0 min 0 min 18 W/m 6,4 km/h (2 Bft) 93,62 %
20.10.2023 14:32 14,2 C 13,3 C 10,6 C 100 % 977,9 hPa 0,0 l/m 0 min 0 min 19 W/m 6,4 km/h (2 Bft) 100,00 %
20.10.2023 14:34 14,2 C 13,3 C 10,6 C 100 % 977,9 hPa 0,0 l/m 0 min 0 min 20 W/m 6,4 km/h (2 Bft) 95,65 %
20.10.2023 14:36 14,1 C 13,3 C 10,6 C 100 % 977,8 hPa 0,0 l/m 0 min 0 min 21 W/m 6,4 km/h (2 Bft) 97,87 %
20.10.2023 14:38 14,1 C 13,3 C 10,6 C 100 % 977,8 hPa 0,0 l/m 0 min 0 min 22 W/m 9,7 km/h (2 Bft) 97,87 %
20.10.2023 14:40 14,1 C 13,3 C 10,6 C 100 % 977,8 hPa 0,0 l/m 0 min 0 min 25 W/m 6,4 km/h (2 Bft) 97,87 %
20.10.2023 14:42 14,1 C 13,3 C 10,6 C 100 % 977,8 hPa 0,0 l/m 0 min 2 min 24 W/m 3,2 km/h (1 Bft) 97,87 %
20.10.2023 14:44 14,1 C 13,3 C 10,6 C 100 % 977,7 hPa 0,0 l/m 0 min 2 min 24 W/m 0,0 km/h (0 Bft) 97,87 %
20.10.2023 14:46 14,1 C 13,3 C 10,6 C 100 % 977,7 hPa 0,0 l/m 0 min 2 min 20 W/m 0,0 km/h (0 Bft) 97,87 %
20.10.2023 14:48 14,1 C 13,3 C 10,6 C 100 % 977,7 hPa 0,0 l/m 0 min 0 min 22 W/m 0,0 km/h (0 Bft) 97,83 %
20.10.2023 14:50 14,1 C 13,3 C 10,6 C 100 % 977,7 hPa 0,0 l/m 0 min 2 min 24 W/m 0,0 km/h (0 Bft) 95,74 %
20.10.2023 14:52 14,1 C 13,3 C 10,6 C 100 % 977,7 hPa 0,0 l/m 0 min 0 min 23 W/m 0,0 km/h (0 Bft) 97,87 %
20.10.2023 14:54 14,1 C 13,3 C 10,6 C 100 % 977,7 hPa 0,0 l/m 0 min 0 min 21 W/m 0,0 km/h (0 Bft) 97,87 %
20.10.2023 14:56 14,2 C 13,3 C 10,6 C 100 % 977,8 hPa 0,0 l/m 0 min 0 min 22 W/m 0,0 km/h (0 Bft) 95,74 %
20.10.2023 14:58 14,2 C 13,3 C 10,6 C 100 % 977,7 hPa 0,0 l/m 0 min 0 min 26 W/m 0,0 km/h (0 Bft) 97,87 %
20.10.2023 15:00 14,2 C 13,3 C 10,6 C 100 % 977,7 hPa 0,0 l/m 0 min 2 min 27 W/m 0,0 km/h (0 Bft) 100,00 %
20.10.2023 15:02 14,2 C 13,3 C 10,6 C 100 % 977,7 hPa 0,0 l/m 0 min 2 min 33 W/m 0,0 km/h (0 Bft) 100,00 %
20.10.2023 15:04 14,2 C 13,3 C 10,6 C 100 % 977,7 hPa 0,0 l/m 0 min 0 min 33 W/m 0,0 km/h (0 Bft) 93,75 %
20.10.2023 15:06 14,2 C 13,3 C 10,6 C 100 % 977,6 hPa 0,0 l/m 0 min 0 min 30 W/m 6,4 km/h (2 Bft) 98,28 %
20.10.2023 15:08 14,2 C 13,3 C 10,6 C 100 % 977,6 hPa 0,0 l/m 0 min 0 min 26 W/m 6,4 km/h (2 Bft) 95,74 %
20.10.2023 15:10 14,2 C 13,3 C 10,6 C 100 % 977,7 hPa 0,0 l/m 0 min 2 min 24 W/m 3,2 km/h (1 Bft) 97,14 %
20.10.2023 15:12 14,2 C 13,3 C 11,1 C 100 % 977,7 hPa 0,2 l/m 0 min 2 min 26 W/m 6,4 km/h (2 Bft) 97,87 %
20.10.2023 15:14 14,3 C 13,9 C 11,1 C 100 % 977,7 hPa 0,0 l/m 0 min 2 min 26 W/m 3,2 km/h (1 Bft) 97,87 %
20.10.2023 15:16 14,3 C 13,9 C 11,1 C 100 % 977,6 hPa 0,0 l/m 0 min 2 min 23 W/m 6,4 km/h (2 Bft) 93,62 %
20.10.2023 15:18 14,3 C 13,9 C 11,1 C 100 % 977,6 hPa 0,2 l/m 0 min 2 min 18 W/m 6,4 km/h (2 Bft) 97,87 %
20.10.2023 15:20 14,3 C 13,9 C 11,1 C 100 % 977,6 hPa 0,0 l/m 0 min 0 min 14 W/m 3,2 km/h (1 Bft) 97,87 %
20.10.2023 15:22 14,3 C 13,9 C 11,1 C 100 % 977,6 hPa 0,0 l/m 0 min 0 min 19 W/m 0,0 km/h (0 Bft) 97,83 %
20.10.2023 15:24 14,3 C 13,9 C 11,1 C 100 % 977,6 hPa 0,0 l/m 0 min 2 min 17 W/m 0,0 km/h (0 Bft) 97,87 %
20.10.2023 15:26 14,3 C 13,3 C 11,1 C 100 % 977,8 hPa 0,0 l/m 0 min 2 min 12 W/m 3,2 km/h (1 Bft) 97,87 %
20.10.2023 15:28 14,3 C 13,3 C 11,1 C 100 % 977,8 hPa 0,0 l/m 0 min 2 min 12 W/m 3,2 km/h (1 Bft) 97,87 %
20.10.2023 15:30 14,3 C 13,3 C 11,1 C 100 % 977,8 hPa 0,2 l/m 0 min 2 min 18 W/m 6,4 km/h (2 Bft) 95,74 %
20.10.2023 15:32 14,3 C 13,9 C 11,1 C 100 % 977,8 hPa 0,0 l/m 0 min 2 min 24 W/m 3,2 km/h (1 Bft) 97,87 %
20.10.2023 15:34 14,3 C 13,9 C 11,1 C 100 % 977,8 hPa 0,0 l/m 0 min 2 min 18 W/m 0,0 km/h (0 Bft) 95,74 %
20.10.2023 15:36 14,3 C 13,9 C 11,1 C 100 % 977,7 hPa 0,0 l/m 0 min 2 min 20 W/m 6,4 km/h (2 Bft) 100,00 %
20.10.2023 15:38 14,3 C 13,9 C 11,1 C 100 % 977,8 hPa 0,0 l/m 0 min 2 min 17 W/m 3,2 km/h (1 Bft) 100,00 %
20.10.2023 15:40 14,3 C 13,9 C 11,1 C 100 % 977,9 hPa 0,2 l/m 0 min 2 min 19 W/m 6,4 km/h (2 Bft) 97,87 %
20.10.2023 15:42 14,3 C 13,9 C 11,1 C 100 % 977,8 hPa 0,0 l/m 0 min 2 min 63 W/m 6,4 km/h (2 Bft) 97,87 %
20.10.2023 15:44 14,3 C 13,9 C 11,1 C 100 % 977,9 hPa 0,0 l/m 0 min 2 min 62 W/m 6,4 km/h (2 Bft) 100,00 %
20.10.2023 15:46 14,3 C 13,9 C 11,1 C 100 % 977,8 hPa 0,0 l/m 0 min 2 min 45 W/m 19,3 km/h (3 Bft) 97,87 %
20.10.2023 15:48 14,4 C 13,9 C 11,1 C 100 % 977,8 hPa 0,0 l/m 0 min 0 min 30 W/m 12,9 km/h (3 Bft) 100,00 %
20.10.2023 15:50 14,4 C 13,9 C 11,1 C 100 % 977,9 hPa 0,0 l/m 0 min 2 min 35 W/m 6,4 km/h (2 Bft) 100,00 %
20.10.2023 15:52 14,4 C 13,9 C 11,1 C 100 % 977,9 hPa 0,0 l/m 0 min 0 min 32 W/m 12,9 km/h (3 Bft) 97,87 %
20.10.2023 15:54 14,4 C 13,9 C 11,1 C 100 % 977,9 hPa 0,0 l/m 0 min 0 min 27 W/m 9,7 km/h (2 Bft) 100,00 %
20.10.2023 15:56 14,4 C 13,9 C 11,1 C 100 % 977,9 hPa 0,0 l/m 0 min 0 min 25 W/m 9,7 km/h (2 Bft) 100,00 %
20.10.2023 15:58 14,4 C 13,9 C 11,1 C 100 % 977,9 hPa 0,0 l/m 0 min 0 min 20 W/m 16,1 km/h (3 Bft) 100,00 %
20.10.2023 16:00 14,4 C 13,9 C 11,1 C 100 % 977,9 hPa 0,0 l/m 0 min 0 min 15 W/m 12,9 km/h (3 Bft) 100,00 %
20.10.2023 16:02 14,5 C 13,9 C 11,1 C 100 % 978,0 hPa 0,0 l/m 0 min 2 min 24 W/m 16,1 km/h (3 Bft) 100,00 %
20.10.2023 16:04 14,5 C 13,9 C 11,1 C 100 % 978,0 hPa 0,0 l/m 0 min 2 min 25 W/m 9,7 km/h (2 Bft) 100,00 %
20.10.2023 16:06 14,5 C 13,9 C 11,1 C 100 % 977,9 hPa 0,0 l/m 0 min 0 min 27 W/m 6,4 km/h (2 Bft) 100,00 %
20.10.2023 16:08 14,6 C 13,9 C 11,1 C 100 % 978,0 hPa 0,0 l/m 0 min 0 min 29 W/m 12,9 km/h (3 Bft) 97,14 %
20.10.2023 16:10 14,6 C 13,9 C 11,1 C 100 % 978,0 hPa 0,0 l/m 0 min 0 min 28 W/m 9,7 km/h (2 Bft) 100,00 %
20.10.2023 16:12 14,6 C 13,9 C 11,1 C 100 % 978,0 hPa 0,0 l/m 0 min 0 min 28 W/m 25,7 km/h (4 Bft) 100,00 %
20.10.2023 16:14 14,6 C 13,9 C 11,1 C 100 % 978,0 hPa 0,0 l/m 0 min 0 min 17 W/m 16,1 km/h (3 Bft) 100,00 %
20.10.2023 16:16 14,6 C 13,9 C 11,1 C 100 % 978,1 hPa 0,0 l/m 0 min 2 min 22 W/m 19,3 km/h (3 Bft) 100,00 %
20.10.2023 16:18 14,6 C 13,9 C 11,1 C 100 % 978,2 hPa 0,0 l/m 0 min 0 min 42 W/m 12,9 km/h (3 Bft) 97,83 %
20.10.2023 16:20 14,6 C 13,9 C 11,1 C 100 % 978,2 hPa 0,0 l/m 0 min 0 min 43 W/m 12,9 km/h (3 Bft) 100,00 %
20.10.2023 16:22 14,6 C 13,9 C 11,1 C 100 % 978,4 hPa 0,0 l/m 0 min 2 min 28 W/m 16,1 km/h (3 Bft) 100,00 %
20.10.2023 16:24 14,6 C 13,9 C 11,1 C 100 % 978,4 hPa 0,0 l/m 0 min 2 min 17 W/m 9,7 km/h (2 Bft) 100,00 %
20.10.2023 16:26 14,6 C 13,9 C 11,1 C 100 % 978,6 hPa 0,0 l/m 0 min 2 min 13 W/m 6,4 km/h (2 Bft) 97,87 %
20.10.2023 16:28 14,6 C 13,9 C 11,1 C 100 % 978,7 hPa 0,0 l/m 0 min 0 min 11 W/m 16,1 km/h (3 Bft) 100,00 %
20.10.2023 16:30 14,6 C 13,9 C 11,1 C 100 % 978,8 hPa 0,0 l/m 0 min 0 min 9 W/m 16,1 km/h (3 Bft) 100,00 %
20.10.2023 16:32 14,6 C 13,9 C 11,1 C 100 % 978,9 hPa 0,0 l/m 0 min 0 min 7 W/m 6,4 km/h (2 Bft) 97,83 %
20.10.2023 16:34 14,6 C 13,9 C 11,1 C 100 % 978,9 hPa 0,0 l/m 0 min 2 min 2 W/m 9,7 km/h (2 Bft) 97,87 %
20.10.2023 16:36 14,6 C 13,9 C 11,1 C 100 % 979,0 hPa 0,0 l/m 0 min 2 min 4 W/m 6,4 km/h (2 Bft) 95,74 %
20.10.2023 16:38 14,6 C 13,9 C 11,1 C 100 % 979,1 hPa 0,0 l/m 0 min 2 min 6 W/m 6,4 km/h (2 Bft) 97,87 %
20.10.2023 16:40 14,6 C 13,9 C 11,1 C 100 % 979,1 hPa 0,2 l/m 0 min 2 min 10 W/m 6,4 km/h (2 Bft) 97,87 %
20.10.2023 16:42 14,6 C 13,9 C 11,1 C 100 % 979,1 hPa 0,0 l/m 0 min 2 min 12 W/m 16,1 km/h (3 Bft) 97,87 %
20.10.2023 16:44 14,6 C 13,9 C 11,1 C 100 % 979,2 hPa 0,0 l/m 0 min 2 min 13 W/m 12,9 km/h (3 Bft) 97,87 %
20.10.2023 16:46 14,5 C 13,9 C 11,1 C 100 % 979,2 hPa 0,0 l/m 0 min 0 min 13 W/m 16,1 km/h (3 Bft) 97,83 %
20.10.2023 16:48 14,4 C 13,9 C 11,1 C 100 % 979,3 hPa 0,0 l/m 0 min 2 min 12 W/m 12,9 km/h (3 Bft) 97,87 %
20.10.2023 16:50 14,4 C 13,9 C 11,1 C 100 % 979,3 hPa 0,0 l/m 0 min 2 min 12 W/m 6,4 km/h (2 Bft) 95,74 %
20.10.2023 16:52 14,3 C 13,9 C 11,1 C 100 % 979,4 hPa 0,0 l/m 0 min 0 min 12 W/m 9,7 km/h (2 Bft) 95,74 %
20.10.2023 16:54 14,3 C 13,9 C 11,1 C 100 % 979,4 hPa 0,0 l/m 0 min 2 min 12 W/m 12,9 km/h (3 Bft) 97,87 %
20.10.2023 16:56 14,3 C 13,9 C 11,1 C 100 % 979,4 hPa 0,0 l/m 0 min 2 min 28 W/m 16,1 km/h (3 Bft) 97,87 %
20.10.2023 16:58 14,3 C 13,9 C 11,1 C 100 % 979,4 hPa 0,0 l/m 0 min 2 min 35 W/m 19,3 km/h (3 Bft) 97,83 %
20.10.2023 17:00 14,3 C 13,9 C 10,6 C 100 % 979,5 hPa 0,0 l/m 0 min 2 min 28 W/m 19,3 km/h (3 Bft) 93,62 %
20.10.2023 17:02 14,2 C 13,3 C 10,6 C 100 % 979,6 hPa 0,0 l/m 0 min 2 min 20 W/m 29,0 km/h (5 Bft) 93,62 %
20.10.2023 17:04 14,1 C 13,3 C 10,6 C 100 % 979,6 hPa 0,0 l/m 0 min 2 min 18 W/m 19,3 km/h (3 Bft) 93,88 %
20.10.2023 17:06 14,1 C 13,3 C 10,6 C 100 % 979,7 hPa 0,2 l/m 0 min 2 min 18 W/m 16,1 km/h (3 Bft) 94,92 %
20.10.2023 17:08 14,1 C 13,3 C 10,6 C 100 % 979,7 hPa 0,0 l/m 0 min 2 min 17 W/m 12,9 km/h (3 Bft) 91,43 %
20.10.2023 17:10 14,1 C 13,3 C 10,6 C 100 % 979,9 hPa 0,0 l/m 0 min 2 min 15 W/m 12,9 km/h (3 Bft) 93,62 %
20.10.2023 17:12 14,0 C 13,3 C 10,6 C 100 % 980,0 hPa 0,0 l/m 0 min 2 min 17 W/m 25,7 km/h (4 Bft) 89,36 %
20.10.2023 17:14 14,0 C 13,3 C 10,6 C 100 % 980,0 hPa 0,0 l/m 0 min 2 min 18 W/m 19,3 km/h (3 Bft) 93,48 %
20.10.2023 17:16 14,0 C 13,3 C 10,6 C 100 % 980,0 hPa 0,2 l/m 0 min 2 min 19 W/m 12,9 km/h (3 Bft) 93,62 %
20.10.2023 17:18 13,9 C 13,3 C 10,6 C 100 % 980,1 hPa 0,0 l/m 0 min 2 min 19 W/m 22,5 km/h (4 Bft) 95,74 %
20.10.2023 17:20 13,9 C 13,3 C 10,6 C 100 % 980,2 hPa 0,0 l/m 0 min 2 min 22 W/m 16,1 km/h (3 Bft) 95,74 %
20.10.2023 17:22 13,9 C 13,3 C 10,6 C 100 % 980,2 hPa 0,0 l/m 0 min 2 min 25 W/m 16,1 km/h (3 Bft) 95,74 %
20.10.2023 17:24 13,9 C 13,3 C 10,6 C 100 % 980,2 hPa 0,2 l/m 0 min 2 min 22 W/m 12,9 km/h (3 Bft) 95,74 %
20.10.2023 17:26 13,9 C 13,3 C 10,6 C 100 % 980,2 hPa 0,0 l/m 0 min 2 min 20 W/m 19,3 km/h (3 Bft) 95,65 %
20.10.2023 17:28 13,8 C 13,3 C 10,6 C 100 % 980,2 hPa 0,0 l/m 0 min 2 min 18 W/m 16,1 km/h (3 Bft) 93,62 %
20.10.2023 17:30 13,8 C 13,3 C 10,6 C 100 % 980,2 hPa 0,0 l/m 0 min 2 min 18 W/m 19,3 km/h (3 Bft) 87,23 %
20.10.2023 17:32 13,8 C 13,3 C 10,6 C 100 % 980,2 hPa 0,0 l/m 0 min 0 min 18 W/m 12,9 km/h (3 Bft) 97,87 %
20.10.2023 17:34 13,8 C 13,3 C 10,6 C 100 % 980,2 hPa 0,0 l/m 0 min 0 min 18 W/m 12,9 km/h (3 Bft) 97,87 %
20.10.2023 17:36 13,8 C 13,3 C 10,6 C 100 % 980,2 hPa 0,0 l/m 0 min 0 min 16 W/m 19,3 km/h (3 Bft) 95,74 %
20.10.2023 17:38 13,8 C 13,3 C 10,6 C 100 % 980,3 hPa 0,0 l/m 0 min 0 min 14 W/m 16,1 km/h (3 Bft) 97,87 %
20.10.2023 17:40 13,8 C 13,3 C 10,6 C 100 % 980,2 hPa 0,0 l/m 0 min 0 min 15 W/m 19,3 km/h (3 Bft) 97,83 %
20.10.2023 17:42 13,8 C 13,3 C 10,6 C 100 % 980,3 hPa 0,0 l/m 0 min 0 min 16 W/m 12,9 km/h (3 Bft) 97,87 %
20.10.2023 17:44 13,8 C 13,3 C 10,6 C 100 % 980,3 hPa 0,0 l/m 0 min 0 min 14 W/m 6,4 km/h (2 Bft) 95,74 %
20.10.2023 17:46 13,8 C 13,3 C 10,6 C 100 % 980,4 hPa 0,0 l/m 0 min 0 min 14 W/m 16,1 km/h (3 Bft) 97,87 %
20.10.2023 17:48 13,8 C 13,3 C 10,6 C 100 % 980,4 hPa 0,0 l/m 0 min 0 min 12 W/m 12,9 km/h (3 Bft) 93,62 %
20.10.2023 17:50 13,8 C 13,3 C 10,6 C 100 % 980,4 hPa 0,0 l/m 0 min 0 min 12 W/m 19,3 km/h (3 Bft) 97,87 %
20.10.2023 17:52 13,8 C 13,3 C 10,6 C 100 % 980,4 hPa 0,0 l/m 0 min 0 min 11 W/m 16,1 km/h (3 Bft) 100,00 %
20.10.2023 17:54 13,8 C 13,3 C 10,6 C 100 % 980,4 hPa 0,0 l/m 0 min 0 min 11 W/m 6,4 km/h (2 Bft) 100,00 %
20.10.2023 17:56 13,8 C 13,3 C 10,6 C 100 % 980,4 hPa 0,0 l/m 0 min 0 min 12 W/m 6,4 km/h (2 Bft) 100,00 %
20.10.2023 17:58 13,8 C 13,3 C 10,6 C 100 % 980,5 hPa 0,0 l/m 0 min 0 min 12 W/m 9,7 km/h (2 Bft) 95,74 %
20.10.2023 18:00 13,8 C 12,8 C 10,6 C 100 % 980,5 hPa 0,0 l/m 0 min 0 min 11 W/m 12,9 km/h (3 Bft) 100,00 %
20.10.2023 18:02 13,8 C 13,3 C 10,6 C 100 % 980,6 hPa 0,0 l/m 0 min 0 min 9 W/m 12,9 km/h (3 Bft) 100,00 %
20.10.2023 18:04 13,8 C 12,8 C 10,6 C 100 % 980,6 hPa 0,0 l/m 0 min 0 min 8 W/m 16,1 km/h (3 Bft) 95,83 %
20.10.2023 18:08 13,8 C 12,8 C 10,6 C 100 % 980,6 hPa 0,0 l/m 0 min 0 min 5 W/m 16,1 km/h (3 Bft) 97,92 %
20.10.2023 18:10 13,8 C 12,8 C 10,6 C 100 % 980,7 hPa 0,0 l/m 0 min 0 min 2 W/m 6,4 km/h (2 Bft) 100,00 %
20.10.2023 18:12 13,8 C 12,8 C 10,6 C 100 % 980,7 hPa 0,0 l/m 0 min 0 min 0 W/m 6,4 km/h (2 Bft) 100,00 %
20.10.2023 18:14 13,7 C 12,8 C 10,6 C 100 % 980,6 hPa 0,0 l/m 0 min 0 min 0 W/m 6,4 km/h (2 Bft) 100,00 %
20.10.2023 18:16 13,7 C 12,8 C 10,6 C 100 % 980,7 hPa 0,0 l/m 0 min 0 min 0 W/m 12,9 km/h (3 Bft) 100,00 %
20.10.2023 18:18 13,7 C 12,8 C 10,6 C 100 % 980,7 hPa 0,0 l/m 0 min 0 min 0 W/m 19,3 km/h (3 Bft) 100,00 %
20.10.2023 18:20 13,7 C 12,8 C 10,6 C 100 % 980,8 hPa 0,0 l/m 0 min 0 min 0 W/m 6,4 km/h (2 Bft) 97,83 %
20.10.2023 18:22 13,7 C 12,8 C 10,6 C 100 % 980,8 hPa 0,0 l/m 0 min 0 min 0 W/m 3,2 km/h (1 Bft) 100,00 %
20.10.2023 18:24 13,7 C 12,8 C 10,6 C 100 % 980,8 hPa 0,0 l/m 0 min 0 min 0 W/m 3,2 km/h (1 Bft) 100,00 %
20.10.2023 18:26 13,7 C 12,8 C 10,6 C 100 % 980,8 hPa 0,0 l/m 0 min 0 min 0 W/m 12,9 km/h (3 Bft) 100,00 %
20.10.2023 18:28 13,7 C 12,8 C 10,6 C 100 % 980,9 hPa 0,0 l/m 0 min 0 min 0 W/m 9,7 km/h (2 Bft) 100,00 %
20.10.2023 18:30 13,7 C 12,8 C 10,6 C 99 % 980,9 hPa 0,0 l/m 0 min 0 min 0 W/m 12,9 km/h (3 Bft) 100,00 %
20.10.2023 18:32 13,7 C 12,8 C 10,6 C 99 % 980,9 hPa 0,0 l/m 0 min 0 min 0 W/m 6,4 km/h (2 Bft) 97,87 %
20.10.2023 18:34 13,7 C 12,8 C 10,6 C 99 % 980,9 hPa 0,0 l/m 0 min 0 min 0 W/m 9,7 km/h (2 Bft) 100,00 %
20.10.2023 18:36 13,7 C 12,8 C 10,6 C 99 % 980,9 hPa 0,0 l/m 0 min 0 min 0 W/m 9,7 km/h (2 Bft) 100,00 %
20.10.2023 18:38 13,7 C 12,8 C 10,6 C 99 % 980,9 hPa 0,0 l/m 0 min 0 min 0 W/m 12,9 km/h (3 Bft) 100,00 %
20.10.2023 18:40 13,7 C 12,8 C 10,6 C 99 % 980,9 hPa 0,0 l/m 0 min 0 min 0 W/m 6,4 km/h (2 Bft) 100,00 %
20.10.2023 18:42 13,7 C 12,8 C 10,6 C 99 % 981,0 hPa 0,0 l/m 0 min 2 min 0 W/m 16,1 km/h (3 Bft) 97,87 %
20.10.2023 18:44 13,7 C 12,8 C 10,6 C 99 % 981,0 hPa 0,0 l/m 0 min 2 min 0 W/m 6,4 km/h (2 Bft) 100,00 %
20.10.2023 18:46 13,7 C 12,8 C 10,6 C 99 % 981,0 hPa 0,0 l/m 0 min 2 min 0 W/m 16,1 km/h (3 Bft) 100,00 %
20.10.2023 18:48 13,6 C 12,8 C 10,6 C 99 % 981,0 hPa 0,0 l/m 0 min 2 min 0 W/m 19,3 km/h (3 Bft) 100,00 %
20.10.2023 18:50 13,6 C 12,8 C 10,6 C 99 % 981,1 hPa 0,0 l/m 0 min 2 min 0 W/m 12,9 km/h (3 Bft) 100,00 %
20.10.2023 18:52 13,6 C 12,8 C 10,6 C 99 % 981,1 hPa 0,0 l/m 0 min 2 min 0 W/m 3,2 km/h (1 Bft) 97,87 %
20.10.2023 18:54 13,6 C 12,8 C 10,6 C 99 % 981,1 hPa 0,0 l/m 0 min 2 min 0 W/m 3,2 km/h (1 Bft) 97,87 %
20.10.2023 18:56 13,6 C 12,8 C 10,6 C 99 % 981,2 hPa 0,2 l/m 0 min 2 min 0 W/m 6,4 km/h (2 Bft) 97,87 %
20.10.2023 18:58 13,6 C 12,8 C 10,6 C 99 % 981,2 hPa 0,0 l/m 0 min 2 min 0 W/m 6,4 km/h (2 Bft) 97,87 %
20.10.2023 19:00 13,6 C 12,8 C 10,6 C 99 % 981,2 hPa 0,0 l/m 0 min 2 min 0 W/m 3,2 km/h (1 Bft) 97,87 %
20.10.2023 19:02 13,6 C 12,8 C 10,6 C 99 % 981,2 hPa 0,0 l/m 0 min 2 min 0 W/m 0,0 km/h (0 Bft) 97,83 %
20.10.2023 19:04 13,6 C 12,8 C 10,6 C 99 % 981,2 hPa 0,2 l/m 0 min 2 min 0 W/m 0,0 km/h (0 Bft) 95,12 %
20.10.2023 19:06 13,6 C 12,8 C 10,6 C 99 % 981,3 hPa 0,0 l/m 0 min 2 min 0 W/m 6,4 km/h (2 Bft) 96,23 %
20.10.2023 19:08 13,6 C 12,8 C 10,6 C 99 % 981,3 hPa 0,0 l/m 0 min 2 min 0 W/m 3,2 km/h (1 Bft) 97,87 %
20.10.2023 19:10 13,6 C 12,8 C 10,6 C 99 % 981,3 hPa 0,0 l/m 0 min 0 min 0 W/m 3,2 km/h (1 Bft) 97,87 %
20.10.2023 19:12 13,6 C 12,8 C 10,6 C 99 % 981,4 hPa 0,0 l/m 0 min 2 min 0 W/m 3,2 km/h (1 Bft) 97,87 %
20.10.2023 19:14 13,6 C 12,8 C 10,6 C 99 % 981,4 hPa 0,0 l/m 0 min 2 min 0 W/m 3,2 km/h (1 Bft) 95,65 %
20.10.2023 19:16 13,6 C 12,8 C 10,6 C 99 % 981,4 hPa 0,0 l/m 0 min 0 min 0 W/m 3,2 km/h (1 Bft) 95,74 %
20.10.2023 19:18 13,6 C 12,8 C 10,6 C 99 % 981,4 hPa 0,0 l/m 0 min 2 min 0 W/m 6,4 km/h (2 Bft) 95,74 %
20.10.2023 19:20 13,6 C 12,8 C 10,6 C 99 % 981,4 hPa 0,0 l/m 0 min 0 min 0 W/m 3,2 km/h (1 Bft) 95,74 %
20.10.2023 19:22 13,6 C 12,8 C 10,6 C 99 % 981,4 hPa 0,0 l/m 0 min 0 min 0 W/m 3,2 km/h (1 Bft) 97,87 %
20.10.2023 19:24 13,6 C 12,8 C 10,6 C 99 % 981,4 hPa 0,0 l/m 0 min 0 min 0 W/m 3,2 km/h (1 Bft) 97,87 %
20.10.2023 19:26 13,6 C 12,8 C 10,6 C 99 % 981,4 hPa 0,0 l/m 0 min 0 min 0 W/m 3,2 km/h (1 Bft) 95,74 %
20.10.2023 19:28 13,5 C 12,8 C 10,0 C 99 % 981,5 hPa 0,0 l/m 0 min 0 min 0 W/m 3,2 km/h (1 Bft) 97,83 %
20.10.2023 19:30 13,5 C 12,8 C 10,0 C 99 % 981,5 hPa 0,0 l/m 0 min 0 min 0 W/m 3,2 km/h (1 Bft) 97,87 %
20.10.2023 19:32 13,5 C 12,8 C 10,0 C 99 % 981,5 hPa 0,0 l/m 0 min 0 min 0 W/m 3,2 km/h (1 Bft) 97,87 %
20.10.2023 19:34 13,5 C 12,8 C 10,0 C 99 % 981,6 hPa 0,0 l/m 0 min 0 min 0 W/m 3,2 km/h (1 Bft) 97,87 %
20.10.2023 19:36 13,4 C 12,8 C 10,0 C 99 % 981,6 hPa 0,0 l/m 0 min 0 min 0 W/m 6,4 km/h (2 Bft) 97,87 %
20.10.2023 19:38 13,4 C 12,8 C 10,0 C 99 % 981,6 hPa 0,0 l/m 0 min 0 min 0 W/m 3,2 km/h (1 Bft) 95,74 %
20.10.2023 19:40 13,4 C 12,8 C 10,0 C 99 % 981,7 hPa 0,0 l/m 0 min 0 min 0 W/m 6,4 km/h (2 Bft) 97,87 %
20.10.2023 19:42 13,4 C 12,8 C 10,0 C 99 % 981,7 hPa 0,0 l/m 0 min 0 min 0 W/m 6,4 km/h (2 Bft) 93,62 %
20.10.2023 19:44 13,3 C 12,2 C 10,0 C 99 % 981,7 hPa 0,0 l/m 0 min 0 min 0 W/m 3,2 km/h (1 Bft) 97,83 %
20.10.2023 19:46 13,3 C 12,2 C 10,0 C 99 % 981,7 hPa 0,0 l/m 0 min 0 min 0 W/m 3,2 km/h (1 Bft) 97,87 %
20.10.2023 19:48 13,3 C 12,2 C 10,0 C 99 % 981,8 hPa 0,0 l/m 0 min 0 min 0 W/m 3,2 km/h (1 Bft) 97,87 %
20.10.2023 19:50 13,3 C 12,2 C 10,0 C 99 % 981,9 hPa 0,0 l/m 0 min 0 min 0 W/m 3,2 km/h (1 Bft) 97,87 %
20.10.2023 19:52 13,2 C 12,2 C 10,0 C 99 % 981,9 hPa 0,0 l/m 0 min 0 min 0 W/m 3,2 km/h (1 Bft) 97,87 %
20.10.2023 19:54 13,2 C 12,2 C 10,0 C 99 % 981,9 hPa 0,0 l/m 0 min 0 min 0 W/m 6,4 km/h (2 Bft) 97,87 %
20.10.2023 19:56 13,2 C 12,2 C 10,0 C 99 % 982,0 hPa 0,0 l/m 0 min 0 min 0 W/m 6,4 km/h (2 Bft) 97,83 %
20.10.2023 19:58 13,2 C 12,2 C 10,0 C 99 % 982,0 hPa 0,0 l/m 0 min 0 min 0 W/m 6,4 km/h (2 Bft) 100,00 %
20.10.2023 20:00 13,1 C 12,2 C 10,0 C 99 % 982,0 hPa 0,0 l/m 0 min 0 min 0 W/m 0,0 km/h (0 Bft) 97,87 %
20.10.2023 20:02 13,1 C 12,2 C 10,0 C 99 % 982,0 hPa 0,0 l/m 0 min 0 min 0 W/m 3,2 km/h (1 Bft) 95,74 %
20.10.2023 20:04 13,1 C 12,2 C 10,0 C 99 % 982,1 hPa 0,0 l/m 0 min 0 min 0 W/m 0,0 km/h (0 Bft) 97,78 %
20.10.2023 20:06 13,1 C 12,2 C 9,4 C 99 % 982,0 hPa 0,0 l/m 0 min 0 min 0 W/m 3,2 km/h (1 Bft) 93,62 %
20.10.2023 20:08 13,0 C 12,2 C 9,4 C 99 % 982,0 hPa 0,0 l/m 0 min 0 min 0 W/m 3,2 km/h (1 Bft) 95,74 %
20.10.2023 20:10 13,0 C 12,2 C 9,4 C 99 % 982,0 hPa 0,0 l/m 0 min 0 min 0 W/m 6,4 km/h (2 Bft) 98,25 %
20.10.2023 20:14 12,9 C 12,2 C 9,4 C 99 % 982,1 hPa 0,0 l/m 0 min 0 min 0 W/m 3,2 km/h (1 Bft) 100,00 %
20.10.2023 20:19 12,9 C 12,2 C 9,4 C 99 % 982,1 hPa 0,0 l/m 0 min 0 min 0 W/m 3,2 km/h (1 Bft) 95,31 %
20.10.2023 20:20 12,9 C 12,2 C 9,4 C 99 % 982,1 hPa 0,0 l/m 0 min 0 min 0 W/m 0,0 km/h (0 Bft) 100,00 %
20.10.2023 20:22 12,8 C 12,2 C 9,4 C 99 % 982,2 hPa 0,0 l/m 0 min 0 min 0 W/m 0,0 km/h (0 Bft) 97,92 %
20.10.2023 20:24 12,8 C 12,2 C 9,4 C 99 % 982,2 hPa 0,0 l/m 0 min 0 min 0 W/m 6,4 km/h (2 Bft) 96,00 %
20.10.2023 20:26 12,8 C 12,2 C 9,4 C 99 % 982,2 hPa 0,0 l/m 0 min 0 min 0 W/m 3,2 km/h (1 Bft) 97,92 %
20.10.2023 20:28 12,8 C 12,2 C 9,4 C 99 % 982,2 hPa 0,0 l/m 0 min 0 min 0 W/m 3,2 km/h (1 Bft) 97,87 %
20.10.2023 20:30 12,8 C 12,2 C 9,4 C 99 % 982,2 hPa 0,0 l/m 0 min 0 min 0 W/m 0,0 km/h (0 Bft) 97,87 %
20.10.2023 20:32 12,8 C 12,2 C 9,4 C 99 % 982,3 hPa 0,0 l/m 0 min 0 min 0 W/m 0,0 km/h (0 Bft) 95,74 %
20.10.2023 20:34 12,7 C 11,7 C 9,4 C 99 % 982,3 hPa 0,0 l/m 0 min 0 min 0 W/m 0,0 km/h (0 Bft) 95,65 %
20.10.2023 20:36 12,7 C 11,7 C 9,4 C 99 % 982,3 hPa 0,0 l/m 0 min 0 min 0 W/m 0,0 km/h (0 Bft) 97,87 %
20.10.2023 20:38 12,7 C 11,7 C 9,4 C 99 % 982,3 hPa 0,0 l/m 0 min 0 min 0 W/m 0,0 km/h (0 Bft) 97,87 %
20.10.2023 20:40 12,7 C 11,7 C 9,4 C 99 % 982,4 hPa 0,0 l/m 0 min 0 min 0 W/m 0,0 km/h (0 Bft) 95,74 %
20.10.2023 20:42 12,7 C 11,7 C 9,4 C 99 % 982,5 hPa 0,0 l/m 0 min 0 min 0 W/m 0,0 km/h (0 Bft) 97,87 %
20.10.2023 20:44 12,6 C 11,7 C 9,4 C 99 % 982,5 hPa 0,0 l/m 0 min 0 min 0 W/m 0,0 km/h (0 Bft) 95,74 %
20.10.2023 20:46 12,6 C 11,7 C 9,4 C 99 % 982,5 hPa 0,0 l/m 0 min 0 min 0 W/m 3,2 km/h (1 Bft) 93,48 %
20.10.2023 20:48 12,6 C 11,7 C 9,4 C 99 % 982,5 hPa 0,0 l/m 0 min 0 min 0 W/m 6,4 km/h (2 Bft) 95,74 %
20.10.2023 20:50 12,6 C 11,7 C 9,4 C 99 % 982,5 hPa 0,0 l/m 0 min 0 min 0 W/m 3,2 km/h (1 Bft) 95,74 %
20.10.2023 20:52 12,5 C 11,7 C 9,4 C 99 % 982,5 hPa 0,0 l/m 0 min 0 min 0 W/m 3,2 km/h (1 Bft) 97,87 %
20.10.2023 20:54 12,5 C 11,7 C 9,4 C 99 % 982,5 hPa 0,0 l/m 0 min 0 min 0 W/m 3,2 km/h (1 Bft) 97,87 %
20.10.2023 20:56 12,5 C 11,7 C 9,4 C 99 % 982,4 hPa 0,0 l/m 0 min 0 min 0 W/m 6,4 km/h (2 Bft) 95,74 %
20.10.2023 20:58 12,5 C 11,7 C 9,4 C 99 % 982,4 hPa 0,0 l/m 0 min 0 min 0 W/m 3,2 km/h (1 Bft) 95,74 %
20.10.2023 21:00 12,4 C 11,7 C 9,4 C 99 % 982,5 hPa 0,0 l/m 0 min 0 min 0 W/m 3,2 km/h (1 Bft) 97,83 %
20.10.2023 21:02 12,4 C 11,7 C 9,4 C 99 % 982,5 hPa 0,0 l/m 0 min 0 min 0 W/m 3,2 km/h (1 Bft) 95,74 %
20.10.2023 21:04 12,4 C 11,7 C 9,4 C 99 % 982,4 hPa 0,0 l/m 0 min 0 min 0 W/m 3,2 km/h (1 Bft) 97,30 %
20.10.2023 21:06 12,4 C 11,7 C 8,9 C 99 % 982,5 hPa 0,0 l/m 0 min 0 min 0 W/m 3,2 km/h (1 Bft) 96,61 %
20.10.2023 21:08 12,3 C 11,7 C 8,9 C 99 % 982,5 hPa 0,0 l/m 0 min 0 min 0 W/m 0,0 km/h (0 Bft) 97,14 %
20.10.2023 21:10 12,3 C 11,7 C 8,9 C 99 % 982,5 hPa 0,0 l/m 0 min 0 min 0 W/m 6,4 km/h (2 Bft) 97,87 %
20.10.2023 21:12 12,3 C 11,7 C 8,9 C 99 % 982,6 hPa 0,0 l/m 0 min 0 min 0 W/m 6,4 km/h (2 Bft) 97,87 %
20.10.2023 21:14 12,3 C 11,7 C 8,9 C 99 % 982,6 hPa 0,0 l/m 0 min 0 min 0 W/m 3,2 km/h (1 Bft) 97,87 %
20.10.2023 21:16 12,3 C 11,7 C 8,9 C 99 % 982,6 hPa 0,0 l/m 0 min 0 min 0 W/m 3,2 km/h (1 Bft) 100,00 %
20.10.2023 21:18 12,2 C 11,7 C 8,9 C 99 % 982,6 hPa 0,0 l/m 0 min 0 min 0 W/m 6,4 km/h (2 Bft) 97,83 %
20.10.2023 21:20 12,2 C 11,7 C 8,9 C 99 % 982,7 hPa 0,0 l/m 0 min 0 min 0 W/m 3,2 km/h (1 Bft) 100,00 %
20.10.2023 21:22 12,2 C 11,7 C 8,9 C 99 % 982,7 hPa 0,0 l/m 0 min 0 min 0 W/m 3,2 km/h (1 Bft) 100,00 %
20.10.2023 21:24 12,2 C 11,7 C 8,9 C 99 % 982,7 hPa 0,0 l/m 0 min 0 min 0 W/m 6,4 km/h (2 Bft) 100,00 %
20.10.2023 21:26 12,2 C 11,7 C 8,9 C 99 % 982,7 hPa 0,0 l/m 0 min 0 min 0 W/m 6,4 km/h (2 Bft) 100,00 %
20.10.2023 21:28 12,2 C 11,7 C 8,9 C 99 % 982,8 hPa 0,0 l/m 0 min 0 min 0 W/m 6,4 km/h (2 Bft) 100,00 %
20.10.2023 21:30 12,2 C 11,7 C 8,9 C 99 % 982,8 hPa 0,0 l/m 0 min 0 min 0 W/m 6,4 km/h (2 Bft) 100,00 %
20.10.2023 21:32 12,2 C 11,7 C 8,9 C 99 % 982,8 hPa 0,0 l/m 0 min 0 min 0 W/m 3,2 km/h (1 Bft) 100,00 %
20.10.2023 21:34 12,1 C 11,7 C 8,9 C 99 % 982,9 hPa 0,0 l/m 0 min 0 min 0 W/m 3,2 km/h (1 Bft) 100,00 %
20.10.2023 21:36 12,1 C 11,7 C 8,9 C 99 % 982,9 hPa 0,0 l/m 0 min 0 min 0 W/m 6,4 km/h (2 Bft) 100,00 %
20.10.2023 21:38 12,1 C 11,7 C 8,9 C 99 % 982,9 hPa 0,0 l/m 0 min 0 min 0 W/m 0,0 km/h (0 Bft) 100,00 %
20.10.2023 21:40 12,1 C 11,7 C 8,9 C 99 % 982,9 hPa 0,0 l/m 0 min 0 min 0 W/m 3,2 km/h (1 Bft) 97,87 %
20.10.2023 21:42 12,1 C 11,7 C 8,9 C 99 % 983,0 hPa 0,0 l/m 0 min 0 min 0 W/m 6,4 km/h (2 Bft) 100,00 %
20.10.2023 21:44 12,1 C 11,7 C 8,9 C 99 % 983,0 hPa 0,0 l/m 0 min 0 min 0 W/m 6,4 km/h (2 Bft) 100,00 %
20.10.2023 21:46 12,1 C 11,7 C 8,9 C 99 % 983,0 hPa 0,0 l/m 0 min 0 min 0 W/m 12,9 km/h (3 Bft) 100,00 %
20.10.2023 21:48 12,1 C 11,7 C 8,9 C 99 % 983,0 hPa 0,0 l/m 0 min 0 min 0 W/m 6,4 km/h (2 Bft) 100,00 %
20.10.2023 21:50 12,1 C 11,7 C 8,9 C 99 % 982,9 hPa 0,0 l/m 0 min 0 min 0 W/m 3,2 km/h (1 Bft) 97,87 %
20.10.2023 21:52 12,1 C 11,7 C 8,9 C 99 % 983,0 hPa 0,0 l/m 0 min 0 min 0 W/m 3,2 km/h (1 Bft) 100,00 %
20.10.2023 21:54 12,0 C 11,7 C 8,9 C 99 % 983,0 hPa 0,0 l/m 0 min 0 min 0 W/m 3,2 km/h (1 Bft) 97,87 %
20.10.2023 21:56 12,0 C 11,7 C 8,9 C 99 % 983,0 hPa 0,0 l/m 0 min 0 min 0 W/m 3,2 km/h (1 Bft) 97,87 %
20.10.2023 21:58 12,0 C 11,1 C 8,9 C 99 % 983,0 hPa 0,0 l/m 0 min 0 min 0 W/m 3,2 km/h (1 Bft) 97,83 %
20.10.2023 22:00 12,0 C 11,1 C 8,9 C 99 % 983,1 hPa 0,0 l/m 0 min 0 min 0 W/m 6,4 km/h (2 Bft) 95,74 %
20.10.2023 22:02 11,9 C 11,1 C 8,9 C 99 % 983,1 hPa 0,0 l/m 0 min 0 min 0 W/m 3,2 km/h (1 Bft) 97,87 %
20.10.2023 22:04 11,9 C 11,1 C 8,9 C 99 % 983,1 hPa 0,0 l/m 0 min 0 min 0 W/m 3,2 km/h (1 Bft) 98,00 %
20.10.2023 22:06 11,9 C 11,1 C 8,9 C 99 % 983,1 hPa 0,0 l/m 0 min 0 min 0 W/m 3,2 km/h (1 Bft) 98,31 %
20.10.2023 22:08 11,9 C 11,1 C 8,9 C 99 % 983,2 hPa 0,0 l/m 0 min 0 min 0 W/m 3,2 km/h (1 Bft) 97,14 %
20.10.2023 22:10 11,9 C 11,1 C 8,9 C 99 % 983,2 hPa 0,0 l/m 0 min 0 min 0 W/m 6,4 km/h (2 Bft) 97,87 %
20.10.2023 22:12 11,9 C 11,1 C 8,9 C 99 % 983,2 hPa 0,0 l/m 0 min 0 min 0 W/m 6,4 km/h (2 Bft) 97,83 %
20.10.2023 22:14 11,9 C 11,1 C 8,9 C 99 % 983,2 hPa 0,0 l/m 0 min 0 min 0 W/m 3,2 km/h (1 Bft) 95,74 %
20.10.2023 22:16 11,8 C 11,1 C 8,9 C 99 % 983,2 hPa 0,0 l/m 0 min 0 min 0 W/m 3,2 km/h (1 Bft) 97,87 %
20.10.2023 22:18 11,8 C 11,1 C 8,9 C 99 % 983,2 hPa 0,0 l/m 0 min 0 min 0 W/m 3,2 km/h (1 Bft) 97,92 %
20.10.2023 22:20 11,8 C 11,1 C 8,9 C 99 % 983,2 hPa 0,0 l/m 0 min 0 min 0 W/m 6,4 km/h (2 Bft) 95,74 %
20.10.2023 22:22 11,8 C 11,1 C 8,9 C 99 % 983,3 hPa 0,0 l/m 0 min 0 min 0 W/m 3,2 km/h (1 Bft) 97,87 %
20.10.2023 22:24 11,8 C 11,1 C 8,9 C 99 % 983,3 hPa 0,0 l/m 0 min 0 min 0 W/m 12,9 km/h (3 Bft) 97,87 %
20.10.2023 22:26 11,8 C 11,1 C 8,9 C 99 % 983,3 hPa 0,0 l/m 0 min 0 min 0 W/m 3,2 km/h (1 Bft) 97,87 %
20.10.2023 22:28 11,8 C 11,1 C 8,9 C 99 % 983,4 hPa 0,0 l/m 0 min 0 min 0 W/m 3,2 km/h (1 Bft) 93,48 %
20.10.2023 22:30 11,8 C 11,1 C 8,9 C 99 % 983,4 hPa 0,0 l/m 0 min 0 min 0 W/m 3,2 km/h (1 Bft) 95,74 %
20.10.2023 22:32 11,7 C 11,1 C 8,9 C 99 % 983,4 hPa 0,0 l/m 0 min 0 min 0 W/m 3,2 km/h (1 Bft) 95,74 %
20.10.2023 22:34 11,7 C 11,1 C 8,9 C 99 % 983,5 hPa 0,0 l/m 0 min 0 min 0 W/m 3,2 km/h (1 Bft) 97,87 %
20.10.2023 22:36 11,7 C 11,1 C 8,9 C 99 % 983,5 hPa 0,0 l/m 0 min 0 min 0 W/m 6,4 km/h (2 Bft) 97,87 %
20.10.2023 22:38 11,7 C 11,1 C 8,9 C 99 % 983,4 hPa 0,0 l/m 0 min 0 min 0 W/m 3,2 km/h (1 Bft) 97,87 %
20.10.2023 22:40 11,7 C 11,1 C 8,9 C 99 % 983,5 hPa 0,0 l/m 0 min 0 min 0 W/m 3,2 km/h (1 Bft) 95,74 %
20.10.2023 22:42 11,7 C 11,1 C 8,9 C 99 % 983,5 hPa 0,0 l/m 0 min 0 min 0 W/m 6,4 km/h (2 Bft) 97,83 %
20.10.2023 22:44 11,7 C 11,1 C 8,9 C 99 % 983,6 hPa 0,0 l/m 0 min 0 min 0 W/m 6,4 km/h (2 Bft) 97,87 %
20.10.2023 22:46 11,7 C 11,1 C 8,9 C 99 % 983,6 hPa 0,0 l/m 0 min 0 min 0 W/m 3,2 km/h (1 Bft) 97,87 %
20.10.2023 22:48 11,7 C 11,1 C 8,9 C 99 % 983,6 hPa 0,0 l/m 0 min 0 min 0 W/m 3,2 km/h (1 Bft) 97,87 %
20.10.2023 22:50 11,7 C 11,1 C 8,9 C 99 % 983,6 hPa 0,0 l/m 0 min 0 min 0 W/m 3,2 km/h (1 Bft) 91,49 %
20.10.2023 22:52 11,7 C 11,1 C 8,9 C 99 % 983,6 hPa 0,0 l/m 0 min 0 min 0 W/m 3,2 km/h (1 Bft) 97,87 %
20.10.2023 22:54 11,7 C 11,1 C 8,9 C 99 % 983,6 hPa 0,0 l/m 0 min 0 min 0 W/m 3,2 km/h (1 Bft) 97,83 %
20.10.2023 22:56 11,7 C 11,1 C 8,9 C 99 % 983,6 hPa 0,0 l/m 0 min 0 min 0 W/m 6,4 km/h (2 Bft) 97,87 %
20.10.2023 22:58 11,7 C 11,1 C 8,9 C 99 % 983,6 hPa 0,0 l/m 0 min 0 min 0 W/m 6,4 km/h (2 Bft) 97,87 %
20.10.2023 23:00 11,7 C 11,1 C 8,9 C 99 % 983,6 hPa 0,0 l/m 0 min 0 min 0 W/m 6,4 km/h (2 Bft) 97,87 %
20.10.2023 23:02 11,7 C 11,1 C 8,9 C 99 % 983,6 hPa 0,0 l/m 0 min 0 min 0 W/m 6,4 km/h (2 Bft) 100,00 %
20.10.2023 23:04 11,7 C 11,1 C 8,9 C 99 % 983,6 hPa 0,0 l/m 0 min 0 min 0 W/m 6,4 km/h (2 Bft) 100,00 %
20.10.2023 23:06 11,7 C 11,1 C 8,9 C 99 % 983,7 hPa 0,0 l/m 0 min 0 min 0 W/m 6,4 km/h (2 Bft) 98,31 %
20.10.2023 23:08 11,7 C 11,1 C 8,3 C 99 % 983,7 hPa 0,0 l/m 0 min 0 min 0 W/m 6,4 km/h (2 Bft) 94,29 %
20.10.2023 23:10 11,7 C 11,1 C 8,3 C 99 % 983,7 hPa 0,0 l/m 0 min 0 min 0 W/m 6,4 km/h (2 Bft) 97,92 %
20.10.2023 23:12 11,7 C 11,1 C 8,3 C 99 % 983,7 hPa 0,0 l/m 0 min 0 min 0 W/m 3,2 km/h (1 Bft) 97,87 %
20.10.2023 23:14 11,7 C 11,1 C 8,9 C 99 % 983,7 hPa 0,0 l/m 0 min 0 min 0 W/m 3,2 km/h (1 Bft) 97,87 %
20.10.2023 23:16 11,7 C 11,1 C 8,9 C 99 % 983,7 hPa 0,0 l/m 0 min 0 min 0 W/m 6,4 km/h (2 Bft) 93,62 %
20.10.2023 23:18 11,7 C 11,1 C 8,3 C 99 % 983,7 hPa 0,0 l/m 0 min 0 min 0 W/m 3,2 km/h (1 Bft) 97,87 %
20.10.2023 23:20 11,7 C 11,1 C 8,3 C 99 % 983,7 hPa 0,0 l/m 0 min 0 min 0 W/m 3,2 km/h (1 Bft) 97,87 %
20.10.2023 23:22 11,7 C 11,1 C 8,3 C 99 % 983,7 hPa 0,0 l/m 0 min 0 min 0 W/m 3,2 km/h (1 Bft) 97,83 %
20.10.2023 23:24 11,7 C 11,1 C 8,3 C 99 % 983,7 hPa 0,0 l/m 0 min 0 min 0 W/m 3,2 km/h (1 Bft) 97,87 %
20.10.2023 23:26 11,7 C 11,1 C 8,3 C 99 % 983,7 hPa 0,0 l/m 0 min 0 min 0 W/m 3,2 km/h (1 Bft) 97,87 %
20.10.2023 23:28 11,7 C 11,1 C 8,3 C 99 % 983,7 hPa 0,0 l/m 0 min 0 min 0 W/m 3,2 km/h (1 Bft) 97,87 %
20.10.2023 23:30 11,7 C 11,1 C 8,3 C 99 % 983,7 hPa 0,0 l/m 0 min 0 min 0 W/m 3,2 km/h (1 Bft) 95,74 %
20.10.2023 23:32 11,6 C 11,1 C 8,3 C 99 % 983,7 hPa 0,0 l/m 0 min 0 min 0 W/m 3,2 km/h (1 Bft) 97,87 %
20.10.2023 23:34 11,6 C 11,1 C 8,3 C 99 % 983,8 hPa 0,0 l/m 0 min 0 min 0 W/m 3,2 km/h (1 Bft) 95,74 %
20.10.2023 23:36 11,6 C 11,1 C 8,3 C 99 % 983,7 hPa 0,0 l/m 0 min 0 min 0 W/m 3,2 km/h (1 Bft) 97,83 %
20.10.2023 23:38 11,6 C 11,1 C 8,3 C 99 % 983,8 hPa 0,0 l/m 0 min 0 min 0 W/m 3,2 km/h (1 Bft) 97,87 %
20.10.2023 23:40 11,6 C 11,1 C 8,3 C 99 % 983,7 hPa 0,0 l/m 0 min 0 min 0 W/m 3,2 km/h (1 Bft) 95,74 %
20.10.2023 23:42 11,6 C 11,1 C 8,3 C 99 % 983,8 hPa 0,0 l/m 0 min 0 min 0 W/m 6,4 km/h (2 Bft) 97,87 %
20.10.2023 23:44 11,6 C 11,1 C 8,3 C 99 % 983,8 hPa 0,0 l/m 0 min 0 min 0 W/m 3,2 km/h (1 Bft) 97,87 %
20.10.2023 23:46 11,6 C 11,1 C 8,3 C 99 % 983,9 hPa 0,0 l/m 0 min 0 min 0 W/m 6,4 km/h (2 Bft) 97,87 %
20.10.2023 23:48 11,6 C 11,1 C 8,3 C 99 % 983,8 hPa 0,0 l/m 0 min 0 min 0 W/m 6,4 km/h (2 Bft) 97,87 %
20.10.2023 23:50 11,6 C 11,1 C 8,3 C 99 % 983,8 hPa 0,0 l/m 0 min 0 min 0 W/m 3,2 km/h (1 Bft) 93,62 %
20.10.2023 23:52 11,6 C 11,1 C 8,3 C 99 % 983,9 hPa 0,0 l/m 0 min 0 min 0 W/m 3,2 km/h (1 Bft) 97,83 %
20.10.2023 23:54 11,6 C 11,1 C 8,3 C 99 % 983,9 hPa 0,0 l/m 0 min 0 min 0 W/m 3,2 km/h (1 Bft) 95,74 %
20.10.2023 23:56 11,6 C 11,1 C 8,3 C 99 % 983,9 hPa 0,0 l/m 0 min 0 min 0 W/m 3,2 km/h (1 Bft) 97,87 %
20.10.2023 23:58 11,6 C 11,1 C 8,3 C 99 % 983,9 hPa 0,0 l/m 0 min 0 min 0 W/m 6,4 km/h (2 Bft) 100,00 %
_ Min-Zeit 23:32 21:58 23:08 02:00 15:06 - - - - 00:02 00:02
Minimum _ 11,6 C 11,1 C 8,3 C 96 % 977,6 hPa - - - - 0,0 km/h (0 Bft) 12,50 %
_ Max-Zeit 06:30 06:36 06:36 12:46 00:08 09:46 00:00 12:08 12:30 17:02 00:36
Maximum _ 15,2 C 15,0 C 11,7 C 100 % 987,8 hPa 0,4 l/m 0 min 4 min 71 W/m 29,0 km/h
W-SW (5 Bft)
100,00 %
Durchschnitt _ 14,1 C 13,3 C 10,4 C 98 % 981,7 hPa #21,2 l/m #0 min. #8:42 h 23 W/m 6,7 km/h (2 Bft) 97,32 %
© 2023 W. Hausmann